<?xml version="1.0" encoding="UTF-8"?>
<gpx xmlns="http://www.topografix.com/GPX/1/1" xmlns:xsi="http://www.w3.org/2001/XMLSchema-instance" version="1.1" xsi:schemaLocation="http://www.topografix.com/GPX/1/1 http://www.topografix.com/GPX/1/1/gpx.xsd">
  <metadata>
    <name>Bermuda National Triathlon Championships 2026 - Aquabike</name>
  </metadata>
  <trk>
    <name>Bermuda National Triathlon Championships 2026 - Aquabike</name>
    <trkseg>
      <trkpt lat="32.354329" lon="-64.65946">
        <ele>2.168189</ele>
        <time>2026-04-26T08:30:00.000Z</time>
      </trkpt>
      <trkpt lat="32.354795" lon="-64.660755">
        <ele>1.943512</ele>
        <time>2026-04-26T08:30:13.000Z</time>
      </trkpt>
      <trkpt lat="32.354902" lon="-64.660899">
        <ele>1.826119</ele>
        <time>2026-04-26T08:30:15.000Z</time>
      </trkpt>
      <trkpt lat="32.354936" lon="-64.660935">
        <ele>1.787953</ele>
        <time>2026-04-26T08:30:16.000Z</time>
      </trkpt>
      <trkpt lat="32.35522" lon="-64.661005">
        <ele>1.566794</ele>
        <time>2026-04-26T08:30:19.000Z</time>
      </trkpt>
      <trkpt lat="32.355447" lon="-64.661002">
        <ele>1.398449</ele>
        <time>2026-04-26T08:30:22.000Z</time>
      </trkpt>
      <trkpt lat="32.355716" lon="-64.661031">
        <ele>1.183803</ele>
        <time>2026-04-26T08:30:25.000Z</time>
      </trkpt>
      <trkpt lat="32.356899" lon="-64.66093">
        <ele>0.693164</ele>
        <time>2026-04-26T08:30:38.000Z</time>
      </trkpt>
      <trkpt lat="32.358377" lon="-64.660577">
        <ele>0.792383</ele>
        <time>2026-04-26T08:30:55.000Z</time>
      </trkpt>
      <trkpt lat="32.361914" lon="-64.659731">
        <ele>5.295905</ele>
        <time>2026-04-26T08:31:35.000Z</time>
      </trkpt>
      <trkpt lat="32.362026" lon="-64.659766">
        <ele>5.668368</ele>
        <time>2026-04-26T08:31:36.000Z</time>
      </trkpt>
      <trkpt lat="32.362099" lon="-64.659854">
        <ele>6.031085</ele>
        <time>2026-04-26T08:31:37.000Z</time>
      </trkpt>
      <trkpt lat="32.362128" lon="-64.659887">
        <ele>6.209714</ele>
        <time>2026-04-26T08:31:37.000Z</time>
      </trkpt>
      <trkpt lat="32.362201" lon="-64.659889">
        <ele>6.445384</ele>
        <time>2026-04-26T08:31:38.000Z</time>
      </trkpt>
      <trkpt lat="32.362244" lon="-64.659861">
        <ele>6.634193</ele>
        <time>2026-04-26T08:31:39.000Z</time>
      </trkpt>
      <trkpt lat="32.362247" lon="-64.659802">
        <ele>6.81957</ele>
        <time>2026-04-26T08:31:40.000Z</time>
      </trkpt>
      <trkpt lat="32.362335" lon="-64.659603">
        <ele>7.47566</ele>
        <time>2026-04-26T08:31:42.000Z</time>
      </trkpt>
      <trkpt lat="32.362585" lon="-64.659055">
        <ele>9.411132</ele>
        <time>2026-04-26T08:31:48.000Z</time>
      </trkpt>
      <trkpt lat="32.362784" lon="-64.658765">
        <ele>10.498284</ele>
        <time>2026-04-26T08:31:52.000Z</time>
      </trkpt>
      <trkpt lat="32.362962" lon="-64.658559">
        <ele>11.186357</ele>
        <time>2026-04-26T08:31:55.000Z</time>
      </trkpt>
      <trkpt lat="32.363158" lon="-64.658373">
        <ele>11.895346</ele>
        <time>2026-04-26T08:31:58.000Z</time>
      </trkpt>
      <trkpt lat="32.363402" lon="-64.658218">
        <ele>12.677966</ele>
        <time>2026-04-26T08:32:01.000Z</time>
      </trkpt>
      <trkpt lat="32.363707" lon="-64.658117">
        <ele>13.565858</ele>
        <time>2026-04-26T08:32:05.000Z</time>
      </trkpt>
      <trkpt lat="32.363852" lon="-64.658137">
        <ele>13.948128</ele>
        <time>2026-04-26T08:32:07.000Z</time>
      </trkpt>
      <trkpt lat="32.363987" lon="-64.658253">
        <ele>14.426173</ele>
        <time>2026-04-26T08:32:09.000Z</time>
      </trkpt>
      <trkpt lat="32.364264" lon="-64.657913">
        <ele>15.180442</ele>
        <time>2026-04-26T08:32:13.000Z</time>
      </trkpt>
      <trkpt lat="32.364418" lon="-64.658016">
        <ele>14.644314</ele>
        <time>2026-04-26T08:32:15.000Z</time>
      </trkpt>
      <trkpt lat="32.364674" lon="-64.658053">
        <ele>13.806691</ele>
        <time>2026-04-26T08:32:18.000Z</time>
      </trkpt>
      <trkpt lat="32.365021" lon="-64.658155">
        <ele>12.655502</ele>
        <time>2026-04-26T08:32:22.000Z</time>
      </trkpt>
      <trkpt lat="32.365323" lon="-64.658259">
        <ele>11.689901</ele>
        <time>2026-04-26T08:32:25.000Z</time>
      </trkpt>
      <trkpt lat="32.365501" lon="-64.65839">
        <ele>10.995278</ele>
        <time>2026-04-26T08:32:27.000Z</time>
      </trkpt>
      <trkpt lat="32.36546" lon="-64.658451">
        <ele>10.758173</ele>
        <time>2026-04-26T08:32:28.000Z</time>
      </trkpt>
      <trkpt lat="32.365306" lon="-64.659029">
        <ele>9.143279</ele>
        <time>2026-04-26T08:32:34.000Z</time>
      </trkpt>
      <trkpt lat="32.365115" lon="-64.659338">
        <ele>8.205444</ele>
        <time>2026-04-26T08:32:38.000Z</time>
      </trkpt>
      <trkpt lat="32.36478" lon="-64.659908">
        <ele>6.457979</ele>
        <time>2026-04-26T08:32:45.000Z</time>
      </trkpt>
      <trkpt lat="32.364739" lon="-64.660062">
        <ele>6.041867</ele>
        <time>2026-04-26T08:32:47.000Z</time>
      </trkpt>
      <trkpt lat="32.36474" lon="-64.660222">
        <ele>5.62675</ele>
        <time>2026-04-26T08:32:49.000Z</time>
      </trkpt>
      <trkpt lat="32.364767" lon="-64.660444">
        <ele>5.0652</ele>
        <time>2026-04-26T08:32:51.000Z</time>
      </trkpt>
      <trkpt lat="32.364803" lon="-64.660659">
        <ele>4.506231</ele>
        <time>2026-04-26T08:32:53.000Z</time>
      </trkpt>
      <trkpt lat="32.365128" lon="-64.661503">
        <ele>4.476005</ele>
        <time>2026-04-26T08:33:02.000Z</time>
      </trkpt>
      <trkpt lat="32.365161" lon="-64.661711">
        <ele>4.53076</ele>
        <time>2026-04-26T08:33:04.000Z</time>
      </trkpt>
      <trkpt lat="32.365118" lon="-64.662496">
        <ele>4.745053</ele>
        <time>2026-04-26T08:33:11.000Z</time>
      </trkpt>
      <trkpt lat="32.365219" lon="-64.662864">
        <ele>4.883855</ele>
        <time>2026-04-26T08:33:15.000Z</time>
      </trkpt>
      <trkpt lat="32.365233" lon="-64.663014">
        <ele>5.008205</ele>
        <time>2026-04-26T08:33:16.000Z</time>
      </trkpt>
      <trkpt lat="32.365061" lon="-64.663732">
        <ele>5.574207</ele>
        <time>2026-04-26T08:33:23.000Z</time>
      </trkpt>
      <trkpt lat="32.365057" lon="-64.663987">
        <ele>5.776126</ele>
        <time>2026-04-26T08:33:25.000Z</time>
      </trkpt>
      <trkpt lat="32.365079" lon="-64.66433">
        <ele>6.04006</ele>
        <time>2026-04-26T08:33:28.000Z</time>
      </trkpt>
      <trkpt lat="32.365174" lon="-64.664767">
        <ele>6.387864</ele>
        <time>2026-04-26T08:33:32.000Z</time>
      </trkpt>
      <trkpt lat="32.365217" lon="-64.664817">
        <ele>6.453667</ele>
        <time>2026-04-26T08:33:33.000Z</time>
      </trkpt>
      <trkpt lat="32.365248" lon="-64.664873">
        <ele>6.496633</ele>
        <time>2026-04-26T08:33:34.000Z</time>
      </trkpt>
      <trkpt lat="32.36559" lon="-64.665414">
        <ele>6.883894</ele>
        <time>2026-04-26T08:33:40.000Z</time>
      </trkpt>
      <trkpt lat="32.365618" lon="-64.665462">
        <ele>6.911604</ele>
        <time>2026-04-26T08:33:41.000Z</time>
      </trkpt>
      <trkpt lat="32.36567" lon="-64.665628">
        <ele>7.018936</ele>
        <time>2026-04-26T08:33:43.000Z</time>
      </trkpt>
      <trkpt lat="32.365691" lon="-64.665813">
        <ele>7.1147</ele>
        <time>2026-04-26T08:33:45.000Z</time>
      </trkpt>
      <trkpt lat="32.365651" lon="-64.666038">
        <ele>7.249725</ele>
        <time>2026-04-26T08:33:47.000Z</time>
      </trkpt>
      <trkpt lat="32.365654" lon="-64.666463">
        <ele>7.486593</ele>
        <time>2026-04-26T08:33:51.000Z</time>
      </trkpt>
      <trkpt lat="32.365708" lon="-64.66701">
        <ele>7.99534</ele>
        <time>2026-04-26T08:33:56.000Z</time>
      </trkpt>
      <trkpt lat="32.365751" lon="-64.667131">
        <ele>8.222525</ele>
        <time>2026-04-26T08:33:57.000Z</time>
      </trkpt>
      <trkpt lat="32.366002" lon="-64.667318">
        <ele>8.739677</ele>
        <time>2026-04-26T08:34:00.000Z</time>
      </trkpt>
      <trkpt lat="32.366413" lon="-64.667658">
        <ele>9.689905</ele>
        <time>2026-04-26T08:34:06.000Z</time>
      </trkpt>
      <trkpt lat="32.366591" lon="-64.668148">
        <ele>10.525155</ele>
        <time>2026-04-26T08:34:11.000Z</time>
      </trkpt>
      <trkpt lat="32.366751" lon="-64.668801">
        <ele>11.895272</ele>
        <time>2026-04-26T08:34:17.000Z</time>
      </trkpt>
      <trkpt lat="32.366819" lon="-64.668906">
        <ele>12.230503</ele>
        <time>2026-04-26T08:34:18.000Z</time>
      </trkpt>
      <trkpt lat="32.367088" lon="-64.669118">
        <ele>13.128584</ele>
        <time>2026-04-26T08:34:22.000Z</time>
      </trkpt>
      <trkpt lat="32.367167" lon="-64.669186">
        <ele>13.393479</ele>
        <time>2026-04-26T08:34:23.000Z</time>
      </trkpt>
      <trkpt lat="32.367273" lon="-64.669322">
        <ele>13.861223</ele>
        <time>2026-04-26T08:34:25.000Z</time>
      </trkpt>
      <trkpt lat="32.367401" lon="-64.669538">
        <ele>14.470844</ele>
        <time>2026-04-26T08:34:27.000Z</time>
      </trkpt>
      <trkpt lat="32.367641" lon="-64.669967">
        <ele>15.689636</ele>
        <time>2026-04-26T08:34:32.000Z</time>
      </trkpt>
      <trkpt lat="32.367739" lon="-64.670177">
        <ele>16.230239</ele>
        <time>2026-04-26T08:34:34.000Z</time>
      </trkpt>
      <trkpt lat="32.367822" lon="-64.670564">
        <ele>16.953229</ele>
        <time>2026-04-26T08:34:38.000Z</time>
      </trkpt>
      <trkpt lat="32.367854" lon="-64.6709">
        <ele>17.549735</ele>
        <time>2026-04-26T08:34:41.000Z</time>
      </trkpt>
      <trkpt lat="32.367846" lon="-64.671235">
        <ele>18.146851</ele>
        <time>2026-04-26T08:34:44.000Z</time>
      </trkpt>
      <trkpt lat="32.367764" lon="-64.671622">
        <ele>18.881918</ele>
        <time>2026-04-26T08:34:48.000Z</time>
      </trkpt>
      <trkpt lat="32.367748" lon="-64.671865">
        <ele>19.303358</ele>
        <time>2026-04-26T08:34:50.000Z</time>
      </trkpt>
      <trkpt lat="32.367758" lon="-64.67202">
        <ele>19.600573</ele>
        <time>2026-04-26T08:34:51.000Z</time>
      </trkpt>
      <trkpt lat="32.367909" lon="-64.672768">
        <ele>20.249237</ele>
        <time>2026-04-26T08:34:58.000Z</time>
      </trkpt>
      <trkpt lat="32.367998" lon="-64.672923">
        <ele>20.354884</ele>
        <time>2026-04-26T08:35:00.000Z</time>
      </trkpt>
      <trkpt lat="32.368266" lon="-64.673197">
        <ele>20.577472</ele>
        <time>2026-04-26T08:35:04.000Z</time>
      </trkpt>
      <trkpt lat="32.368435" lon="-64.673409">
        <ele>20.739353</ele>
        <time>2026-04-26T08:35:07.000Z</time>
      </trkpt>
      <trkpt lat="32.368695" lon="-64.673599">
        <ele>20.928804</ele>
        <time>2026-04-26T08:35:10.000Z</time>
      </trkpt>
      <trkpt lat="32.36888" lon="-64.673912">
        <ele>20.973058</ele>
        <time>2026-04-26T08:35:14.000Z</time>
      </trkpt>
      <trkpt lat="32.369301" lon="-64.674253">
        <ele>20.249579</ele>
        <time>2026-04-26T08:35:20.000Z</time>
      </trkpt>
      <trkpt lat="32.369362" lon="-64.674339">
        <ele>20.128232</ele>
        <time>2026-04-26T08:35:21.000Z</time>
      </trkpt>
      <trkpt lat="32.369415" lon="-64.674631">
        <ele>19.769377</ele>
        <time>2026-04-26T08:35:24.000Z</time>
      </trkpt>
      <trkpt lat="32.369416" lon="-64.674689">
        <ele>19.696354</ele>
        <time>2026-04-26T08:35:25.000Z</time>
      </trkpt>
      <trkpt lat="32.369627" lon="-64.675513">
        <ele>18.677632</ele>
        <time>2026-04-26T08:35:33.000Z</time>
      </trkpt>
      <trkpt lat="32.369654" lon="-64.675761">
        <ele>18.028067</ele>
        <time>2026-04-26T08:35:35.000Z</time>
      </trkpt>
      <trkpt lat="32.369513" lon="-64.676698">
        <ele>14.852224</ele>
        <time>2026-04-26T08:35:44.000Z</time>
      </trkpt>
      <trkpt lat="32.369406" lon="-64.677248">
        <ele>12.97351</ele>
        <time>2026-04-26T08:35:49.000Z</time>
      </trkpt>
      <trkpt lat="32.369413" lon="-64.677356">
        <ele>12.583863</ele>
        <time>2026-04-26T08:35:50.000Z</time>
      </trkpt>
      <trkpt lat="32.369671" lon="-64.677854">
        <ele>11.021513</ele>
        <time>2026-04-26T08:35:55.000Z</time>
      </trkpt>
      <trkpt lat="32.3697" lon="-64.678004">
        <ele>10.768758</ele>
        <time>2026-04-26T08:35:56.000Z</time>
      </trkpt>
      <trkpt lat="32.369702" lon="-64.678151">
        <ele>10.514421</ele>
        <time>2026-04-26T08:35:57.000Z</time>
      </trkpt>
      <trkpt lat="32.369448" lon="-64.679273">
        <ele>8.613187</ele>
        <time>2026-04-26T08:36:08.000Z</time>
      </trkpt>
      <trkpt lat="32.369398" lon="-64.679609">
        <ele>8.02828</ele>
        <time>2026-04-26T08:36:11.000Z</time>
      </trkpt>
      <trkpt lat="32.369424" lon="-64.680219">
        <ele>7.307159</ele>
        <time>2026-04-26T08:36:17.000Z</time>
      </trkpt>
      <trkpt lat="32.369525" lon="-64.680713">
        <ele>6.757882</ele>
        <time>2026-04-26T08:36:22.000Z</time>
      </trkpt>
      <trkpt lat="32.370462" lon="-64.683414">
        <ele>4.778328</ele>
        <time>2026-04-26T08:36:49.000Z</time>
      </trkpt>
      <trkpt lat="32.370675" lon="-64.684143">
        <ele>4.36313</ele>
        <time>2026-04-26T08:36:56.000Z</time>
      </trkpt>
      <trkpt lat="32.370864" lon="-64.684596">
        <ele>4.062062</ele>
        <time>2026-04-26T08:37:01.000Z</time>
      </trkpt>
      <trkpt lat="32.371218" lon="-64.685299">
        <ele>3.548998</ele>
        <time>2026-04-26T08:37:09.000Z</time>
      </trkpt>
      <trkpt lat="32.371238" lon="-64.685411">
        <ele>3.477109</ele>
        <time>2026-04-26T08:37:10.000Z</time>
      </trkpt>
      <trkpt lat="32.371233" lon="-64.685559">
        <ele>3.383476</ele>
        <time>2026-04-26T08:37:11.000Z</time>
      </trkpt>
      <trkpt lat="32.371198" lon="-64.685685">
        <ele>3.268048</ele>
        <time>2026-04-26T08:37:12.000Z</time>
      </trkpt>
      <trkpt lat="32.371141" lon="-64.685815">
        <ele>3.09775</ele>
        <time>2026-04-26T08:37:13.000Z</time>
      </trkpt>
      <trkpt lat="32.371036" lon="-64.685904">
        <ele>2.928163</ele>
        <time>2026-04-26T08:37:14.000Z</time>
      </trkpt>
      <trkpt lat="32.37071" lon="-64.686169">
        <ele>2.373023</ele>
        <time>2026-04-26T08:37:18.000Z</time>
      </trkpt>
      <trkpt lat="32.369908" lon="-64.686994">
        <ele>0.895123</ele>
        <time>2026-04-26T08:37:30.000Z</time>
      </trkpt>
      <trkpt lat="32.369753" lon="-64.687203">
        <ele>0.724986</ele>
        <time>2026-04-26T08:37:33.000Z</time>
      </trkpt>
      <trkpt lat="32.369567" lon="-64.687571">
        <ele>0.526662</ele>
        <time>2026-04-26T08:37:37.000Z</time>
      </trkpt>
      <trkpt lat="32.36947" lon="-64.687954">
        <ele>0.342313</ele>
        <time>2026-04-26T08:37:41.000Z</time>
      </trkpt>
      <trkpt lat="32.369464" lon="-64.688381">
        <ele>0.144124</ele>
        <time>2026-04-26T08:37:45.000Z</time>
      </trkpt>
      <trkpt lat="32.369664" lon="-64.689669">
        <ele>0.162835</ele>
        <time>2026-04-26T08:37:57.000Z</time>
      </trkpt>
      <trkpt lat="32.369732" lon="-64.689986">
        <ele>0.323196</ele>
        <time>2026-04-26T08:38:00.000Z</time>
      </trkpt>
      <trkpt lat="32.369985" lon="-64.69062">
        <ele>0.660232</ele>
        <time>2026-04-26T08:38:07.000Z</time>
      </trkpt>
      <trkpt lat="32.370037" lon="-64.690877">
        <ele>0.788884</ele>
        <time>2026-04-26T08:38:09.000Z</time>
      </trkpt>
      <trkpt lat="32.370049" lon="-64.691384">
        <ele>0.97057</ele>
        <time>2026-04-26T08:38:14.000Z</time>
      </trkpt>
      <trkpt lat="32.370038" lon="-64.691777">
        <ele>1.086729</ele>
        <time>2026-04-26T08:38:18.000Z</time>
      </trkpt>
      <trkpt lat="32.369923" lon="-64.692001">
        <ele>1.163588</ele>
        <time>2026-04-26T08:38:20.000Z</time>
      </trkpt>
      <trkpt lat="32.369873" lon="-64.69201">
        <ele>1.17789</ele>
        <time>2026-04-26T08:38:21.000Z</time>
      </trkpt>
      <trkpt lat="32.3698" lon="-64.692069">
        <ele>1.211132</ele>
        <time>2026-04-26T08:38:22.000Z</time>
      </trkpt>
      <trkpt lat="32.369762" lon="-64.692185">
        <ele>1.24443</ele>
        <time>2026-04-26T08:38:23.000Z</time>
      </trkpt>
      <trkpt lat="32.369781" lon="-64.692253">
        <ele>1.266635</ele>
        <time>2026-04-26T08:38:24.000Z</time>
      </trkpt>
      <trkpt lat="32.369772" lon="-64.69247">
        <ele>1.331633</ele>
        <time>2026-04-26T08:38:26.000Z</time>
      </trkpt>
      <trkpt lat="32.369453" lon="-64.693444">
        <ele>1.523995</ele>
        <time>2026-04-26T08:38:36.000Z</time>
      </trkpt>
      <trkpt lat="32.369231" lon="-64.693993">
        <ele>1.557866</ele>
        <time>2026-04-26T08:38:42.000Z</time>
      </trkpt>
      <trkpt lat="32.369046" lon="-64.694348">
        <ele>1.581846</ele>
        <time>2026-04-26T08:38:46.000Z</time>
      </trkpt>
      <trkpt lat="32.367923" lon="-64.695641">
        <ele>1.508887</ele>
        <time>2026-04-26T08:39:03.000Z</time>
      </trkpt>
      <trkpt lat="32.367536" lon="-64.696369">
        <ele>1.433029</ele>
        <time>2026-04-26T08:39:11.000Z</time>
      </trkpt>
      <trkpt lat="32.365878" lon="-64.700387">
        <ele>1.46308</ele>
        <time>2026-04-26T08:39:53.000Z</time>
      </trkpt>
      <trkpt lat="32.365669" lon="-64.701037">
        <ele>1.612092</ele>
        <time>2026-04-26T08:40:00.000Z</time>
      </trkpt>
      <trkpt lat="32.365366" lon="-64.702328">
        <ele>1.878474</ele>
        <time>2026-04-26T08:40:13.000Z</time>
      </trkpt>
      <trkpt lat="32.365242" lon="-64.702741">
        <ele>1.854429</ele>
        <time>2026-04-26T08:40:17.000Z</time>
      </trkpt>
      <trkpt lat="32.364941" lon="-64.703643">
        <ele>1.801651</ele>
        <time>2026-04-26T08:40:26.000Z</time>
      </trkpt>
      <trkpt lat="32.36427" lon="-64.705339">
        <ele>1.087157</ele>
        <time>2026-04-26T08:40:44.000Z</time>
      </trkpt>
      <trkpt lat="32.363969" lon="-64.706129">
        <ele>0.607328</ele>
        <time>2026-04-26T08:40:52.000Z</time>
      </trkpt>
      <trkpt lat="32.363794" lon="-64.706471">
        <ele>0.495577</ele>
        <time>2026-04-26T08:40:56.000Z</time>
      </trkpt>
      <trkpt lat="32.363685" lon="-64.706573">
        <ele>0.458163</ele>
        <time>2026-04-26T08:40:58.000Z</time>
      </trkpt>
      <trkpt lat="32.363496" lon="-64.706714">
        <ele>0.39421</ele>
        <time>2026-04-26T08:41:00.000Z</time>
      </trkpt>
      <trkpt lat="32.363356" lon="-64.706759">
        <ele>0.354524</ele>
        <time>2026-04-26T08:41:02.000Z</time>
      </trkpt>
      <trkpt lat="32.362862" lon="-64.706819">
        <ele>0.217466</ele>
        <time>2026-04-26T08:41:08.000Z</time>
      </trkpt>
      <trkpt lat="32.362331" lon="-64.706849">
        <ele>0.077349</ele>
        <time>2026-04-26T08:41:14.000Z</time>
      </trkpt>
      <trkpt lat="32.362095" lon="-64.706852">
        <ele>0.091819</ele>
        <time>2026-04-26T08:41:17.000Z</time>
      </trkpt>
      <trkpt lat="32.361859" lon="-64.706792">
        <ele>0.105977</ele>
        <time>2026-04-26T08:41:20.000Z</time>
      </trkpt>
      <trkpt lat="32.360711" lon="-64.706234">
        <ele>0.180888</ele>
        <time>2026-04-26T08:41:34.000Z</time>
      </trkpt>
      <trkpt lat="32.360143" lon="-64.70588">
        <ele>0.173802</ele>
        <time>2026-04-26T08:41:41.000Z</time>
      </trkpt>
      <trkpt lat="32.360717" lon="-64.706229">
        <ele>0.162946</ele>
        <time>2026-04-26T08:41:48.000Z</time>
      </trkpt>
      <trkpt lat="32.361861" lon="-64.706782">
        <ele>0.13716</ele>
        <time>2026-04-26T08:42:02.000Z</time>
      </trkpt>
      <trkpt lat="32.362101" lon="-64.706841">
        <ele>0.131533</ele>
        <time>2026-04-26T08:42:05.000Z</time>
      </trkpt>
      <trkpt lat="32.362331" lon="-64.706859">
        <ele>0.125798</ele>
        <time>2026-04-26T08:42:08.000Z</time>
      </trkpt>
      <trkpt lat="32.362869" lon="-64.70682">
        <ele>0.11301</ele>
        <time>2026-04-26T08:42:14.000Z</time>
      </trkpt>
      <trkpt lat="32.363354" lon="-64.706744">
        <ele>0.30066</ele>
        <time>2026-04-26T08:42:19.000Z</time>
      </trkpt>
      <trkpt lat="32.363491" lon="-64.706713">
        <ele>0.370236</ele>
        <time>2026-04-26T08:42:21.000Z</time>
      </trkpt>
      <trkpt lat="32.363676" lon="-64.70657">
        <ele>0.482354</ele>
        <time>2026-04-26T08:42:23.000Z</time>
      </trkpt>
      <trkpt lat="32.363791" lon="-64.706469">
        <ele>0.547928</ele>
        <time>2026-04-26T08:42:25.000Z</time>
      </trkpt>
      <trkpt lat="32.363974" lon="-64.706118">
        <ele>0.717371</ele>
        <time>2026-04-26T08:42:29.000Z</time>
      </trkpt>
      <trkpt lat="32.364276" lon="-64.705351">
        <ele>1.085391</ele>
        <time>2026-04-26T08:42:37.000Z</time>
      </trkpt>
      <trkpt lat="32.364943" lon="-64.703642">
        <ele>1.956533</ele>
        <time>2026-04-26T08:42:55.000Z</time>
      </trkpt>
      <trkpt lat="32.365254" lon="-64.70274">
        <ele>1.853324</ele>
        <time>2026-04-26T08:43:04.000Z</time>
      </trkpt>
      <trkpt lat="32.365382" lon="-64.702341">
        <ele>1.790436</ele>
        <time>2026-04-26T08:43:08.000Z</time>
      </trkpt>
      <trkpt lat="32.365668" lon="-64.701042">
        <ele>1.605518</ele>
        <time>2026-04-26T08:43:21.000Z</time>
      </trkpt>
      <trkpt lat="32.365876" lon="-64.700389">
        <ele>1.514906</ele>
        <time>2026-04-26T08:43:28.000Z</time>
      </trkpt>
      <trkpt lat="32.367534" lon="-64.696358">
        <ele>1.455295</ele>
        <time>2026-04-26T08:44:10.000Z</time>
      </trkpt>
      <trkpt lat="32.367911" lon="-64.695637">
        <ele>1.493993</ele>
        <time>2026-04-26T08:44:18.000Z</time>
      </trkpt>
      <trkpt lat="32.369043" lon="-64.694353">
        <ele>1.624814</ele>
        <time>2026-04-26T08:44:35.000Z</time>
      </trkpt>
      <trkpt lat="32.369238" lon="-64.693989">
        <ele>1.59394</ele>
        <time>2026-04-26T08:44:39.000Z</time>
      </trkpt>
      <trkpt lat="32.369467" lon="-64.693435">
        <ele>1.527578</ele>
        <time>2026-04-26T08:44:45.000Z</time>
      </trkpt>
      <trkpt lat="32.369759" lon="-64.692474">
        <ele>1.416462</ele>
        <time>2026-04-26T08:44:55.000Z</time>
      </trkpt>
      <trkpt lat="32.36985" lon="-64.692365">
        <ele>1.399293</ele>
        <time>2026-04-26T08:44:56.000Z</time>
      </trkpt>
      <trkpt lat="32.369914" lon="-64.692346">
        <ele>1.365557</ele>
        <time>2026-04-26T08:44:57.000Z</time>
      </trkpt>
      <trkpt lat="32.369985" lon="-64.692315">
        <ele>1.331097</ele>
        <time>2026-04-26T08:44:58.000Z</time>
      </trkpt>
      <trkpt lat="32.370042" lon="-64.692257">
        <ele>1.291565</ele>
        <time>2026-04-26T08:44:59.000Z</time>
      </trkpt>
      <trkpt lat="32.370046" lon="-64.692168">
        <ele>1.252342</ele>
        <time>2026-04-26T08:45:00.000Z</time>
      </trkpt>
      <trkpt lat="32.370036" lon="-64.692089">
        <ele>1.208325</ele>
        <time>2026-04-26T08:45:01.000Z</time>
      </trkpt>
      <trkpt lat="32.37001" lon="-64.691915">
        <ele>1.134434</ele>
        <time>2026-04-26T08:45:03.000Z</time>
      </trkpt>
      <trkpt lat="32.37004" lon="-64.691787">
        <ele>1.07485</ele>
        <time>2026-04-26T08:45:04.000Z</time>
      </trkpt>
      <trkpt lat="32.370042" lon="-64.691377">
        <ele>0.900653</ele>
        <time>2026-04-26T08:45:08.000Z</time>
      </trkpt>
      <trkpt lat="32.370036" lon="-64.690884">
        <ele>0.678936</ele>
        <time>2026-04-26T08:45:13.000Z</time>
      </trkpt>
      <trkpt lat="32.369972" lon="-64.690618">
        <ele>0.562363</ele>
        <time>2026-04-26T08:45:16.000Z</time>
      </trkpt>
      <trkpt lat="32.369726" lon="-64.689992">
        <ele>0.338029</ele>
        <time>2026-04-26T08:45:22.000Z</time>
      </trkpt>
      <trkpt lat="32.36966" lon="-64.689665">
        <ele>0.249625</ele>
        <time>2026-04-26T08:45:25.000Z</time>
      </trkpt>
      <trkpt lat="32.369462" lon="-64.688383">
        <ele>-0.102492</ele>
        <time>2026-04-26T08:45:37.000Z</time>
      </trkpt>
      <trkpt lat="32.369474" lon="-64.687952">
        <ele>0.217392</ele>
        <time>2026-04-26T08:45:41.000Z</time>
      </trkpt>
      <trkpt lat="32.369585" lon="-64.687575">
        <ele>0.526288</ele>
        <time>2026-04-26T08:45:45.000Z</time>
      </trkpt>
      <trkpt lat="32.369752" lon="-64.687203">
        <ele>0.858618</ele>
        <time>2026-04-26T08:45:49.000Z</time>
      </trkpt>
      <trkpt lat="32.36991" lon="-64.686992">
        <ele>1.075877</ele>
        <time>2026-04-26T08:45:52.000Z</time>
      </trkpt>
      <trkpt lat="32.370716" lon="-64.686164">
        <ele>2.289533</ele>
        <time>2026-04-26T08:46:04.000Z</time>
      </trkpt>
      <trkpt lat="32.371036" lon="-64.685914">
        <ele>2.830245</ele>
        <time>2026-04-26T08:46:08.000Z</time>
      </trkpt>
      <trkpt lat="32.371141" lon="-64.685806">
        <ele>2.995427</ele>
        <time>2026-04-26T08:46:10.000Z</time>
      </trkpt>
      <trkpt lat="32.371208" lon="-64.685684">
        <ele>3.161289</ele>
        <time>2026-04-26T08:46:11.000Z</time>
      </trkpt>
      <trkpt lat="32.371244" lon="-64.685559">
        <ele>3.314232</ele>
        <time>2026-04-26T08:46:12.000Z</time>
      </trkpt>
      <trkpt lat="32.371244" lon="-64.685413">
        <ele>3.488832</ele>
        <time>2026-04-26T08:46:13.000Z</time>
      </trkpt>
      <trkpt lat="32.371214" lon="-64.685295">
        <ele>3.622898</ele>
        <time>2026-04-26T08:46:14.000Z</time>
      </trkpt>
      <trkpt lat="32.370855" lon="-64.684582">
        <ele>4.196528</ele>
        <time>2026-04-26T08:46:22.000Z</time>
      </trkpt>
      <trkpt lat="32.370678" lon="-64.684157">
        <ele>4.391402</ele>
        <time>2026-04-26T08:46:26.000Z</time>
      </trkpt>
      <trkpt lat="32.370461" lon="-64.683414">
        <ele>4.70106</ele>
        <time>2026-04-26T08:46:33.000Z</time>
      </trkpt>
      <trkpt lat="32.369529" lon="-64.680707">
        <ele>6.603895</ele>
        <time>2026-04-26T08:47:00.000Z</time>
      </trkpt>
      <trkpt lat="32.369411" lon="-64.680216">
        <ele>7.290228</ele>
        <time>2026-04-26T08:47:05.000Z</time>
      </trkpt>
      <trkpt lat="32.369408" lon="-64.679607">
        <ele>8.128149</ele>
        <time>2026-04-26T08:47:11.000Z</time>
      </trkpt>
      <trkpt lat="32.36946" lon="-64.679259">
        <ele>8.613458</ele>
        <time>2026-04-26T08:47:14.000Z</time>
      </trkpt>
      <trkpt lat="32.369709" lon="-64.678153">
        <ele>10.807008</ele>
        <time>2026-04-26T08:47:25.000Z</time>
      </trkpt>
      <trkpt lat="32.369713" lon="-64.677998">
        <ele>11.120315</ele>
        <time>2026-04-26T08:47:26.000Z</time>
      </trkpt>
      <trkpt lat="32.369674" lon="-64.677859">
        <ele>11.431647</ele>
        <time>2026-04-26T08:47:27.000Z</time>
      </trkpt>
      <trkpt lat="32.369413" lon="-64.67737">
        <ele>12.628757</ele>
        <time>2026-04-26T08:47:32.000Z</time>
      </trkpt>
      <trkpt lat="32.3694" lon="-64.677254">
        <ele>12.866426</ele>
        <time>2026-04-26T08:47:33.000Z</time>
      </trkpt>
      <trkpt lat="32.369509" lon="-64.676708">
        <ele>14.46105</ele>
        <time>2026-04-26T08:47:38.000Z</time>
      </trkpt>
      <trkpt lat="32.369645" lon="-64.675767">
        <ele>17.578158</ele>
        <time>2026-04-26T08:47:47.000Z</time>
      </trkpt>
      <trkpt lat="32.369635" lon="-64.675509">
        <ele>18.433551</ele>
        <time>2026-04-26T08:47:49.000Z</time>
      </trkpt>
      <trkpt lat="32.36942" lon="-64.674692">
        <ele>20.346103</ele>
        <time>2026-04-26T08:47:57.000Z</time>
      </trkpt>
      <trkpt lat="32.3694" lon="-64.674633">
        <ele>20.358789</ele>
        <time>2026-04-26T08:47:58.000Z</time>
      </trkpt>
      <trkpt lat="32.369364" lon="-64.674342">
        <ele>20.421096</ele>
        <time>2026-04-26T08:48:01.000Z</time>
      </trkpt>
      <trkpt lat="32.369311" lon="-64.674248">
        <ele>20.442165</ele>
        <time>2026-04-26T08:48:02.000Z</time>
      </trkpt>
      <trkpt lat="32.368881" lon="-64.673914">
        <ele>20.567782</ele>
        <time>2026-04-26T08:48:08.000Z</time>
      </trkpt>
      <trkpt lat="32.36869" lon="-64.673585">
        <ele>20.648486</ele>
        <time>2026-04-26T08:48:12.000Z</time>
      </trkpt>
      <trkpt lat="32.368441" lon="-64.673404">
        <ele>20.721169</ele>
        <time>2026-04-26T08:48:15.000Z</time>
      </trkpt>
      <trkpt lat="32.36826" lon="-64.673197">
        <ele>20.517822</ele>
        <time>2026-04-26T08:48:18.000Z</time>
      </trkpt>
      <trkpt lat="32.367999" lon="-64.672925">
        <ele>20.214686</ele>
        <time>2026-04-26T08:48:22.000Z</time>
      </trkpt>
      <trkpt lat="32.367918" lon="-64.67277">
        <ele>20.070795</ele>
        <time>2026-04-26T08:48:24.000Z</time>
      </trkpt>
      <trkpt lat="32.367759" lon="-64.672018">
        <ele>19.513629</ele>
        <time>2026-04-26T08:48:31.000Z</time>
      </trkpt>
      <trkpt lat="32.367757" lon="-64.671852">
        <ele>19.393177</ele>
        <time>2026-04-26T08:48:33.000Z</time>
      </trkpt>
      <trkpt lat="32.367769" lon="-64.67162">
        <ele>19.222381</ele>
        <time>2026-04-26T08:48:35.000Z</time>
      </trkpt>
      <trkpt lat="32.367842" lon="-64.671234">
        <ele>18.441467</ele>
        <time>2026-04-26T08:48:39.000Z</time>
      </trkpt>
      <trkpt lat="32.367861" lon="-64.670902">
        <ele>17.712501</ele>
        <time>2026-04-26T08:48:42.000Z</time>
      </trkpt>
      <trkpt lat="32.367825" lon="-64.670562">
        <ele>16.984262</ele>
        <time>2026-04-26T08:48:45.000Z</time>
      </trkpt>
      <trkpt lat="32.367739" lon="-64.670187">
        <ele>16.101646</ele>
        <time>2026-04-26T08:48:49.000Z</time>
      </trkpt>
      <trkpt lat="32.367642" lon="-64.669962">
        <ele>15.559787</ele>
        <time>2026-04-26T08:48:51.000Z</time>
      </trkpt>
      <trkpt lat="32.367397" lon="-64.669545">
        <ele>14.429635</ele>
        <time>2026-04-26T08:48:56.000Z</time>
      </trkpt>
      <trkpt lat="32.367272" lon="-64.669327">
        <ele>13.854664</ele>
        <time>2026-04-26T08:48:58.000Z</time>
      </trkpt>
      <trkpt lat="32.367161" lon="-64.669185">
        <ele>13.413513</ele>
        <time>2026-04-26T08:49:00.000Z</time>
      </trkpt>
      <trkpt lat="32.367103" lon="-64.669117">
        <ele>13.163684</ele>
        <time>2026-04-26T08:49:01.000Z</time>
      </trkpt>
      <trkpt lat="32.366831" lon="-64.668916">
        <ele>12.316655</ele>
        <time>2026-04-26T08:49:05.000Z</time>
      </trkpt>
      <trkpt lat="32.366752" lon="-64.668807">
        <ele>12.000502</ele>
        <time>2026-04-26T08:49:06.000Z</time>
      </trkpt>
      <trkpt lat="32.366581" lon="-64.66815">
        <ele>10.465224</ele>
        <time>2026-04-26T08:49:12.000Z</time>
      </trkpt>
      <trkpt lat="32.366431" lon="-64.667646">
        <ele>9.47357</ele>
        <time>2026-04-26T08:49:17.000Z</time>
      </trkpt>
      <trkpt lat="32.366002" lon="-64.667323">
        <ele>8.791401</ele>
        <time>2026-04-26T08:49:23.000Z</time>
      </trkpt>
      <trkpt lat="32.365762" lon="-64.667138">
        <ele>8.420123</ele>
        <time>2026-04-26T08:49:26.000Z</time>
      </trkpt>
      <trkpt lat="32.365705" lon="-64.667004">
        <ele>8.257042</ele>
        <time>2026-04-26T08:49:27.000Z</time>
      </trkpt>
      <trkpt lat="32.365672" lon="-64.666459">
        <ele>7.639845</ele>
        <time>2026-04-26T08:49:32.000Z</time>
      </trkpt>
      <trkpt lat="32.36565" lon="-64.666049">
        <ele>7.222429</ele>
        <time>2026-04-26T08:49:36.000Z</time>
      </trkpt>
      <trkpt lat="32.365686" lon="-64.665799">
        <ele>7.075005</ele>
        <time>2026-04-26T08:49:38.000Z</time>
      </trkpt>
      <trkpt lat="32.365686" lon="-64.665636">
        <ele>6.970429</ele>
        <time>2026-04-26T08:49:40.000Z</time>
      </trkpt>
      <trkpt lat="32.365626" lon="-64.665459">
        <ele>6.853216</ele>
        <time>2026-04-26T08:49:42.000Z</time>
      </trkpt>
      <trkpt lat="32.36517" lon="-64.664757">
        <ele>6.308305</ele>
        <time>2026-04-26T08:49:50.000Z</time>
      </trkpt>
      <trkpt lat="32.365077" lon="-64.664331">
        <ele>6.030932</ele>
        <time>2026-04-26T08:49:54.000Z</time>
      </trkpt>
      <trkpt lat="32.365047" lon="-64.66398">
        <ele>5.787424</ele>
        <time>2026-04-26T08:49:57.000Z</time>
      </trkpt>
      <trkpt lat="32.365053" lon="-64.66372">
        <ele>5.59091</ele>
        <time>2026-04-26T08:49:59.000Z</time>
      </trkpt>
      <trkpt lat="32.36522" lon="-64.66302">
        <ele>5.040002</ele>
        <time>2026-04-26T08:50:06.000Z</time>
      </trkpt>
      <trkpt lat="32.365222" lon="-64.662854">
        <ele>4.918992</ele>
        <time>2026-04-26T08:50:08.000Z</time>
      </trkpt>
      <trkpt lat="32.365118" lon="-64.662503">
        <ele>4.63297</ele>
        <time>2026-04-26T08:50:11.000Z</time>
      </trkpt>
      <trkpt lat="32.365148" lon="-64.661702">
        <ele>4.519071</ele>
        <time>2026-04-26T08:50:19.000Z</time>
      </trkpt>
      <trkpt lat="32.365127" lon="-64.661503">
        <ele>4.591857</ele>
        <time>2026-04-26T08:50:21.000Z</time>
      </trkpt>
      <trkpt lat="32.364803" lon="-64.660665">
        <ele>4.926986</ele>
        <time>2026-04-26T08:50:30.000Z</time>
      </trkpt>
      <trkpt lat="32.364749" lon="-64.660443">
        <ele>5.00665</ele>
        <time>2026-04-26T08:50:32.000Z</time>
      </trkpt>
      <trkpt lat="32.36474" lon="-64.660228">
        <ele>5.086692</ele>
        <time>2026-04-26T08:50:34.000Z</time>
      </trkpt>
      <trkpt lat="32.364745" lon="-64.660069">
        <ele>5.271713</ele>
        <time>2026-04-26T08:50:35.000Z</time>
      </trkpt>
      <trkpt lat="32.364791" lon="-64.65991">
        <ele>5.810227</ele>
        <time>2026-04-26T08:50:37.000Z</time>
      </trkpt>
      <trkpt lat="32.365112" lon="-64.659344">
        <ele>8.071654</ele>
        <time>2026-04-26T08:50:43.000Z</time>
      </trkpt>
      <trkpt lat="32.365294" lon="-64.659036">
        <ele>9.28529</ele>
        <time>2026-04-26T08:50:47.000Z</time>
      </trkpt>
      <trkpt lat="32.365467" lon="-64.658446">
        <ele>11.283751</ele>
        <time>2026-04-26T08:50:53.000Z</time>
      </trkpt>
      <trkpt lat="32.365504" lon="-64.658381">
        <ele>11.571318</ele>
        <time>2026-04-26T08:50:54.000Z</time>
      </trkpt>
      <trkpt lat="32.365315" lon="-64.658256">
        <ele>12.228946</ele>
        <time>2026-04-26T08:50:56.000Z</time>
      </trkpt>
      <trkpt lat="32.365036" lon="-64.658153">
        <ele>12.717695</ele>
        <time>2026-04-26T08:50:59.000Z</time>
      </trkpt>
      <trkpt lat="32.364824" lon="-64.65811">
        <ele>13.042104</ele>
        <time>2026-04-26T08:51:01.000Z</time>
      </trkpt>
      <trkpt lat="32.36467" lon="-64.658071">
        <ele>13.300411</ele>
        <time>2026-04-26T08:51:03.000Z</time>
      </trkpt>
      <trkpt lat="32.364504" lon="-64.658038">
        <ele>13.568873</ele>
        <time>2026-04-26T08:51:05.000Z</time>
      </trkpt>
      <trkpt lat="32.364409" lon="-64.658011">
        <ele>13.724388</ele>
        <time>2026-04-26T08:51:06.000Z</time>
      </trkpt>
      <trkpt lat="32.364273" lon="-64.657911">
        <ele>13.995773</ele>
        <time>2026-04-26T08:51:08.000Z</time>
      </trkpt>
      <trkpt lat="32.36398" lon="-64.658248">
        <ele>14.64536</ele>
        <time>2026-04-26T08:51:13.000Z</time>
      </trkpt>
      <trkpt lat="32.363848" lon="-64.658127">
        <ele>14.921177</ele>
        <time>2026-04-26T08:51:15.000Z</time>
      </trkpt>
      <trkpt lat="32.363714" lon="-64.658121">
        <ele>14.650537</ele>
        <time>2026-04-26T08:51:16.000Z</time>
      </trkpt>
      <trkpt lat="32.363405" lon="-64.658217">
        <ele>13.335257</ele>
        <time>2026-04-26T08:51:20.000Z</time>
      </trkpt>
      <trkpt lat="32.363171" lon="-64.658384">
        <ele>12.17592</ele>
        <time>2026-04-26T08:51:23.000Z</time>
      </trkpt>
      <trkpt lat="32.362949" lon="-64.658561">
        <ele>11.125668</ele>
        <time>2026-04-26T08:51:26.000Z</time>
      </trkpt>
      <trkpt lat="32.362778" lon="-64.658758">
        <ele>10.106361</ele>
        <time>2026-04-26T08:51:29.000Z</time>
      </trkpt>
      <trkpt lat="32.362588" lon="-64.659063">
        <ele>8.806102</ele>
        <time>2026-04-26T08:51:33.000Z</time>
      </trkpt>
      <trkpt lat="32.362331" lon="-64.659608">
        <ele>6.978207</ele>
        <time>2026-04-26T08:51:39.000Z</time>
      </trkpt>
      <trkpt lat="32.362214" lon="-64.659652">
        <ele>6.664848</ele>
        <time>2026-04-26T08:51:40.000Z</time>
      </trkpt>
      <trkpt lat="32.362175" lon="-64.659638">
        <ele>6.561178</ele>
        <time>2026-04-26T08:51:40.000Z</time>
      </trkpt>
      <trkpt lat="32.362114" lon="-64.659665">
        <ele>6.430599</ele>
        <time>2026-04-26T08:51:41.000Z</time>
      </trkpt>
      <trkpt lat="32.361919" lon="-64.65972">
        <ele>5.915379</ele>
        <time>2026-04-26T08:51:43.000Z</time>
      </trkpt>
      <trkpt lat="32.358368" lon="-64.660585">
        <ele>0.909091</ele>
        <time>2026-04-26T08:52:23.000Z</time>
      </trkpt>
      <trkpt lat="32.356901" lon="-64.660928">
        <ele>0.52136</ele>
        <time>2026-04-26T08:52:40.000Z</time>
      </trkpt>
      <trkpt lat="32.355725" lon="-64.661013">
        <ele>0.640431</ele>
        <time>2026-04-26T08:52:53.000Z</time>
      </trkpt>
      <trkpt lat="32.355437" lon="-64.661002">
        <ele>0.65858</ele>
        <time>2026-04-26T08:52:56.000Z</time>
      </trkpt>
      <trkpt lat="32.355726" lon="-64.661014">
        <ele>0.631482</ele>
        <time>2026-04-26T08:52:59.000Z</time>
      </trkpt>
      <trkpt lat="32.356896" lon="-64.660925">
        <ele>0.519318</ele>
        <time>2026-04-26T08:53:12.000Z</time>
      </trkpt>
      <trkpt lat="32.358377" lon="-64.660576">
        <ele>0.851702</ele>
        <time>2026-04-26T08:53:29.000Z</time>
      </trkpt>
      <trkpt lat="32.361927" lon="-64.659728">
        <ele>5.354387</ele>
        <time>2026-04-26T08:54:09.000Z</time>
      </trkpt>
      <trkpt lat="32.362025" lon="-64.659776">
        <ele>5.563718</ele>
        <time>2026-04-26T08:54:10.000Z</time>
      </trkpt>
      <trkpt lat="32.362091" lon="-64.659849">
        <ele>5.767549</ele>
        <time>2026-04-26T08:54:11.000Z</time>
      </trkpt>
      <trkpt lat="32.362122" lon="-64.659894">
        <ele>5.867953</ele>
        <time>2026-04-26T08:54:12.000Z</time>
      </trkpt>
      <trkpt lat="32.36219" lon="-64.65989">
        <ele>6.000393</ele>
        <time>2026-04-26T08:54:13.000Z</time>
      </trkpt>
      <trkpt lat="32.362247" lon="-64.659854">
        <ele>6.106499</ele>
        <time>2026-04-26T08:54:14.000Z</time>
      </trkpt>
      <trkpt lat="32.362253" lon="-64.659793">
        <ele>6.210672</ele>
        <time>2026-04-26T08:54:15.000Z</time>
      </trkpt>
      <trkpt lat="32.362342" lon="-64.659621">
        <ele>6.685363</ele>
        <time>2026-04-26T08:54:17.000Z</time>
      </trkpt>
      <trkpt lat="32.362591" lon="-64.659047">
        <ele>9.027237</ele>
        <time>2026-04-26T08:54:23.000Z</time>
      </trkpt>
      <trkpt lat="32.362779" lon="-64.658763">
        <ele>10.398747</ele>
        <time>2026-04-26T08:54:26.000Z</time>
      </trkpt>
      <trkpt lat="32.362952" lon="-64.658555">
        <ele>11.473912</ele>
        <time>2026-04-26T08:54:29.000Z</time>
      </trkpt>
      <trkpt lat="32.363165" lon="-64.658381">
        <ele>12.58173</ele>
        <time>2026-04-26T08:54:32.000Z</time>
      </trkpt>
      <trkpt lat="32.363404" lon="-64.658227">
        <ele>13.804631</ele>
        <time>2026-04-26T08:54:35.000Z</time>
      </trkpt>
      <trkpt lat="32.363703" lon="-64.658107">
        <ele>14.238599</ele>
        <time>2026-04-26T08:54:39.000Z</time>
      </trkpt>
      <trkpt lat="32.363841" lon="-64.658136">
        <ele>14.150162</ele>
        <time>2026-04-26T08:54:41.000Z</time>
      </trkpt>
      <trkpt lat="32.36399" lon="-64.658242">
        <ele>14.03957</ele>
        <time>2026-04-26T08:54:43.000Z</time>
      </trkpt>
      <trkpt lat="32.36428" lon="-64.657908">
        <ele>13.779104</ele>
        <time>2026-04-26T08:54:47.000Z</time>
      </trkpt>
      <trkpt lat="32.364427" lon="-64.658005">
        <ele>13.670276</ele>
        <time>2026-04-26T08:54:49.000Z</time>
      </trkpt>
      <trkpt lat="32.364683" lon="-64.658057">
        <ele>13.500275</ele>
        <time>2026-04-26T08:54:52.000Z</time>
      </trkpt>
      <trkpt lat="32.365038" lon="-64.658156">
        <ele>13.26662</ele>
        <time>2026-04-26T08:54:56.000Z</time>
      </trkpt>
      <trkpt lat="32.365317" lon="-64.658261">
        <ele>12.405099</ele>
        <time>2026-04-26T08:54:59.000Z</time>
      </trkpt>
      <trkpt lat="32.365508" lon="-64.658379">
        <ele>11.513968</ele>
        <time>2026-04-26T08:55:01.000Z</time>
      </trkpt>
      <trkpt lat="32.365469" lon="-64.65845">
        <ele>11.209782</ele>
        <time>2026-04-26T08:55:02.000Z</time>
      </trkpt>
      <trkpt lat="32.365302" lon="-64.659035">
        <ele>9.09578</ele>
        <time>2026-04-26T08:55:08.000Z</time>
      </trkpt>
      <trkpt lat="32.365115" lon="-64.659335">
        <ele>7.811961</ele>
        <time>2026-04-26T08:55:12.000Z</time>
      </trkpt>
      <trkpt lat="32.364785" lon="-64.659893">
        <ele>5.736673</ele>
        <time>2026-04-26T08:55:18.000Z</time>
      </trkpt>
      <trkpt lat="32.364738" lon="-64.660055">
        <ele>5.610678</ele>
        <time>2026-04-26T08:55:20.000Z</time>
      </trkpt>
      <trkpt lat="32.364747" lon="-64.66022">
        <ele>5.485004</ele>
        <time>2026-04-26T08:55:22.000Z</time>
      </trkpt>
      <trkpt lat="32.364753" lon="-64.660454">
        <ele>5.31496</ele>
        <time>2026-04-26T08:55:24.000Z</time>
      </trkpt>
      <trkpt lat="32.364813" lon="-64.660654">
        <ele>5.145723</ele>
        <time>2026-04-26T08:55:26.000Z</time>
      </trkpt>
      <trkpt lat="32.365117" lon="-64.661518">
        <ele>4.433825</ele>
        <time>2026-04-26T08:55:35.000Z</time>
      </trkpt>
      <trkpt lat="32.365153" lon="-64.661709">
        <ele>4.279176</ele>
        <time>2026-04-26T08:55:37.000Z</time>
      </trkpt>
      <trkpt lat="32.36512" lon="-64.6625">
        <ele>4.682766</ele>
        <time>2026-04-26T08:55:44.000Z</time>
      </trkpt>
      <trkpt lat="32.365222" lon="-64.662857">
        <ele>4.952386</ele>
        <time>2026-04-26T08:55:48.000Z</time>
      </trkpt>
      <trkpt lat="32.365227" lon="-64.663021">
        <ele>5.066479</ele>
        <time>2026-04-26T08:55:50.000Z</time>
      </trkpt>
      <trkpt lat="32.36506" lon="-64.663731">
        <ele>5.585798</ele>
        <time>2026-04-26T08:55:57.000Z</time>
      </trkpt>
      <trkpt lat="32.365048" lon="-64.663981">
        <ele>5.767308</ele>
        <time>2026-04-26T08:55:59.000Z</time>
      </trkpt>
      <trkpt lat="32.36508" lon="-64.664324">
        <ele>5.994199</ele>
        <time>2026-04-26T08:56:02.000Z</time>
      </trkpt>
      <trkpt lat="32.365167" lon="-64.664755">
        <ele>6.293193</ele>
        <time>2026-04-26T08:56:06.000Z</time>
      </trkpt>
      <trkpt lat="32.365223" lon="-64.664816">
        <ele>6.349762</ele>
        <time>2026-04-26T08:56:07.000Z</time>
      </trkpt>
      <trkpt lat="32.365244" lon="-64.664876">
        <ele>6.392112</ele>
        <time>2026-04-26T08:56:08.000Z</time>
      </trkpt>
      <trkpt lat="32.3656" lon="-64.665429">
        <ele>6.847948</ele>
        <time>2026-04-26T08:56:15.000Z</time>
      </trkpt>
      <trkpt lat="32.365623" lon="-64.665461">
        <ele>6.880586</ele>
        <time>2026-04-26T08:56:15.000Z</time>
      </trkpt>
      <trkpt lat="32.365683" lon="-64.665638">
        <ele>7.006924</ele>
        <time>2026-04-26T08:56:17.000Z</time>
      </trkpt>
      <trkpt lat="32.365679" lon="-64.66581">
        <ele>7.11964</ele>
        <time>2026-04-26T08:56:19.000Z</time>
      </trkpt>
      <trkpt lat="32.365657" lon="-64.666044">
        <ele>7.335536</ele>
        <time>2026-04-26T08:56:21.000Z</time>
      </trkpt>
      <trkpt lat="32.365662" lon="-64.666467">
        <ele>7.72211</ele>
        <time>2026-04-26T08:56:25.000Z</time>
      </trkpt>
      <trkpt lat="32.365721" lon="-64.667013">
        <ele>8.229585</ele>
        <time>2026-04-26T08:56:30.000Z</time>
      </trkpt>
      <trkpt lat="32.365753" lon="-64.667135">
        <ele>8.363673</ele>
        <time>2026-04-26T08:56:31.000Z</time>
      </trkpt>
      <trkpt lat="32.366001" lon="-64.667326">
        <ele>8.668932</ele>
        <time>2026-04-26T08:56:34.000Z</time>
      </trkpt>
      <trkpt lat="32.366413" lon="-64.667643">
        <ele>9.403587</ele>
        <time>2026-04-26T08:56:39.000Z</time>
      </trkpt>
      <trkpt lat="32.366583" lon="-64.66814">
        <ele>10.552748</ele>
        <time>2026-04-26T08:56:44.000Z</time>
      </trkpt>
      <trkpt lat="32.366756" lon="-64.66881">
        <ele>12.025037</ele>
        <time>2026-04-26T08:56:51.000Z</time>
      </trkpt>
      <trkpt lat="32.366828" lon="-64.668912">
        <ele>12.328235</ele>
        <time>2026-04-26T08:56:52.000Z</time>
      </trkpt>
      <trkpt lat="32.367091" lon="-64.669109">
        <ele>13.140501</ele>
        <time>2026-04-26T08:56:55.000Z</time>
      </trkpt>
      <trkpt lat="32.367176" lon="-64.669177">
        <ele>13.380078</ele>
        <time>2026-04-26T08:56:56.000Z</time>
      </trkpt>
      <trkpt lat="32.367275" lon="-64.669325">
        <ele>13.812042</ele>
        <time>2026-04-26T08:56:58.000Z</time>
      </trkpt>
      <trkpt lat="32.367412" lon="-64.669544">
        <ele>14.405563</ele>
        <time>2026-04-26T08:57:01.000Z</time>
      </trkpt>
      <trkpt lat="32.367644" lon="-64.669962">
        <ele>15.592104</ele>
        <time>2026-04-26T08:57:06.000Z</time>
      </trkpt>
      <trkpt lat="32.367733" lon="-64.670185">
        <ele>16.161328</ele>
        <time>2026-04-26T08:57:08.000Z</time>
      </trkpt>
      <trkpt lat="32.367827" lon="-64.670567">
        <ele>17.088494</ele>
        <time>2026-04-26T08:57:12.000Z</time>
      </trkpt>
      <trkpt lat="32.367859" lon="-64.670895">
        <ele>17.853479</ele>
        <time>2026-04-26T08:57:15.000Z</time>
      </trkpt>
      <trkpt lat="32.367845" lon="-64.671237">
        <ele>18.61924</ele>
        <time>2026-04-26T08:57:18.000Z</time>
      </trkpt>
      <trkpt lat="32.367766" lon="-64.671633">
        <ele>18.990822</ele>
        <time>2026-04-26T08:57:22.000Z</time>
      </trkpt>
      <trkpt lat="32.367751" lon="-64.671849">
        <ele>19.20214</ele>
        <time>2026-04-26T08:57:24.000Z</time>
      </trkpt>
      <trkpt lat="32.367767" lon="-64.672028">
        <ele>19.351167</ele>
        <time>2026-04-26T08:57:26.000Z</time>
      </trkpt>
      <trkpt lat="32.367905" lon="-64.672768">
        <ele>20.040507</ele>
        <time>2026-04-26T08:57:33.000Z</time>
      </trkpt>
      <trkpt lat="32.367991" lon="-64.672935">
        <ele>20.218531</ele>
        <time>2026-04-26T08:57:35.000Z</time>
      </trkpt>
      <trkpt lat="32.368263" lon="-64.673206">
        <ele>20.559248</ele>
        <time>2026-04-26T08:57:39.000Z</time>
      </trkpt>
      <trkpt lat="32.368437" lon="-64.673404">
        <ele>20.590693</ele>
        <time>2026-04-26T08:57:42.000Z</time>
      </trkpt>
      <trkpt lat="32.36869" lon="-64.673602">
        <ele>20.627489</ele>
        <time>2026-04-26T08:57:45.000Z</time>
      </trkpt>
      <trkpt lat="32.36888" lon="-64.673916">
        <ele>20.668337</ele>
        <time>2026-04-26T08:57:49.000Z</time>
      </trkpt>
      <trkpt lat="32.369305" lon="-64.674249">
        <ele>20.731926</ele>
        <time>2026-04-26T08:57:55.000Z</time>
      </trkpt>
      <trkpt lat="32.369363" lon="-64.674344">
        <ele>20.742595</ele>
        <time>2026-04-26T08:57:56.000Z</time>
      </trkpt>
      <trkpt lat="32.369408" lon="-64.674633">
        <ele>20.77413</ele>
        <time>2026-04-26T08:57:59.000Z</time>
      </trkpt>
      <trkpt lat="32.369411" lon="-64.674695">
        <ele>20.684282</ele>
        <time>2026-04-26T08:58:00.000Z</time>
      </trkpt>
      <trkpt lat="32.369627" lon="-64.675506">
        <ele>18.121624</ele>
        <time>2026-04-26T08:58:08.000Z</time>
      </trkpt>
      <trkpt lat="32.369662" lon="-64.675761">
        <ele>17.344468</ele>
        <time>2026-04-26T08:58:10.000Z</time>
      </trkpt>
      <trkpt lat="32.369519" lon="-64.676707">
        <ele>14.512471</ele>
        <time>2026-04-26T08:58:19.000Z</time>
      </trkpt>
      <trkpt lat="32.369406" lon="-64.677248">
        <ele>13.172165</ele>
        <time>2026-04-26T08:58:24.000Z</time>
      </trkpt>
      <trkpt lat="32.36941" lon="-64.677358">
        <ele>12.898746</ele>
        <time>2026-04-26T08:58:25.000Z</time>
      </trkpt>
      <trkpt lat="32.369681" lon="-64.677866">
        <ele>11.521637</ele>
        <time>2026-04-26T08:58:31.000Z</time>
      </trkpt>
      <trkpt lat="32.369708" lon="-64.678">
        <ele>11.163485</ele>
        <time>2026-04-26T08:58:32.000Z</time>
      </trkpt>
      <trkpt lat="32.369698" lon="-64.678151">
        <ele>10.80307</ele>
        <time>2026-04-26T08:58:33.000Z</time>
      </trkpt>
      <trkpt lat="32.369446" lon="-64.679261">
        <ele>8.602706</ele>
        <time>2026-04-26T08:58:44.000Z</time>
      </trkpt>
      <trkpt lat="32.369397" lon="-64.679609">
        <ele>8.091375</ele>
        <time>2026-04-26T08:58:47.000Z</time>
      </trkpt>
      <trkpt lat="32.369423" lon="-64.680223">
        <ele>7.208535</ele>
        <time>2026-04-26T08:58:53.000Z</time>
      </trkpt>
      <trkpt lat="32.36952" lon="-64.680698">
        <ele>6.485398</ele>
        <time>2026-04-26T08:58:58.000Z</time>
      </trkpt>
      <trkpt lat="32.370467" lon="-64.683411">
        <ele>4.725983</ele>
        <time>2026-04-26T08:59:26.000Z</time>
      </trkpt>
      <trkpt lat="32.370674" lon="-64.684157">
        <ele>4.451914</ele>
        <time>2026-04-26T08:59:33.000Z</time>
      </trkpt>
      <trkpt lat="32.370853" lon="-64.68459">
        <ele>4.27944</ele>
        <time>2026-04-26T08:59:38.000Z</time>
      </trkpt>
      <trkpt lat="32.371212" lon="-64.685308">
        <ele>3.526393</ele>
        <time>2026-04-26T08:59:46.000Z</time>
      </trkpt>
      <trkpt lat="32.37125" lon="-64.68542">
        <ele>3.402404</ele>
        <time>2026-04-26T08:59:47.000Z</time>
      </trkpt>
      <trkpt lat="32.371238" lon="-64.685567">
        <ele>3.240948</ele>
        <time>2026-04-26T08:59:48.000Z</time>
      </trkpt>
      <trkpt lat="32.371193" lon="-64.685684">
        <ele>3.099517</ele>
        <time>2026-04-26T08:59:49.000Z</time>
      </trkpt>
      <trkpt lat="32.371127" lon="-64.685813">
        <ele>2.946138</ele>
        <time>2026-04-26T08:59:50.000Z</time>
      </trkpt>
      <trkpt lat="32.371051" lon="-64.685919">
        <ele>2.793399</ele>
        <time>2026-04-26T08:59:51.000Z</time>
      </trkpt>
      <trkpt lat="32.370713" lon="-64.686173">
        <ele>2.293407</ele>
        <time>2026-04-26T08:59:55.000Z</time>
      </trkpt>
      <trkpt lat="32.369911" lon="-64.686993">
        <ele>1.095254</ele>
        <time>2026-04-26T09:00:07.000Z</time>
      </trkpt>
      <trkpt lat="32.369763" lon="-64.6872">
        <ele>0.838192</ele>
        <time>2026-04-26T09:00:10.000Z</time>
      </trkpt>
      <trkpt lat="32.369571" lon="-64.68757">
        <ele>0.444975</ele>
        <time>2026-04-26T09:00:14.000Z</time>
      </trkpt>
      <trkpt lat="32.369483" lon="-64.687954">
        <ele>0.07949</ele>
        <time>2026-04-26T09:00:18.000Z</time>
      </trkpt>
      <trkpt lat="32.369468" lon="-64.688379">
        <ele>0.039286</ele>
        <time>2026-04-26T09:00:22.000Z</time>
      </trkpt>
      <trkpt lat="32.369654" lon="-64.689671">
        <ele>0.206634</ele>
        <time>2026-04-26T09:00:34.000Z</time>
      </trkpt>
      <trkpt lat="32.369738" lon="-64.689994">
        <ele>0.248648</ele>
        <time>2026-04-26T09:00:37.000Z</time>
      </trkpt>
      <trkpt lat="32.369981" lon="-64.690617">
        <ele>0.541876</ele>
        <time>2026-04-26T09:00:43.000Z</time>
      </trkpt>
      <trkpt lat="32.37002" lon="-64.690879">
        <ele>0.674551</ele>
        <time>2026-04-26T09:00:45.000Z</time>
      </trkpt>
      <trkpt lat="32.370037" lon="-64.691379">
        <ele>0.926858</ele>
        <time>2026-04-26T09:00:50.000Z</time>
      </trkpt>
      <trkpt lat="32.370035" lon="-64.691778">
        <ele>1.125095</ele>
        <time>2026-04-26T09:00:54.000Z</time>
      </trkpt>
      <trkpt lat="32.369917" lon="-64.692003">
        <ele>1.256263</ele>
        <time>2026-04-26T09:00:56.000Z</time>
      </trkpt>
      <trkpt lat="32.36987" lon="-64.692017">
        <ele>1.280677</ele>
        <time>2026-04-26T09:00:57.000Z</time>
      </trkpt>
      <trkpt lat="32.369787" lon="-64.69208">
        <ele>1.334005</ele>
        <time>2026-04-26T09:00:58.000Z</time>
      </trkpt>
      <trkpt lat="32.36976" lon="-64.69218">
        <ele>1.349541</ele>
        <time>2026-04-26T09:00:59.000Z</time>
      </trkpt>
      <trkpt lat="32.369793" lon="-64.692264">
        <ele>1.359886</ele>
        <time>2026-04-26T09:01:00.000Z</time>
      </trkpt>
      <trkpt lat="32.369768" lon="-64.692469">
        <ele>1.390209</ele>
        <time>2026-04-26T09:01:02.000Z</time>
      </trkpt>
      <trkpt lat="32.36945" lon="-64.693444">
        <ele>1.530421</ele>
        <time>2026-04-26T09:01:12.000Z</time>
      </trkpt>
      <trkpt lat="32.369238" lon="-64.693982">
        <ele>1.614153</ele>
        <time>2026-04-26T09:01:18.000Z</time>
      </trkpt>
      <trkpt lat="32.369034" lon="-64.694346">
        <ele>1.604025</ele>
        <time>2026-04-26T09:01:22.000Z</time>
      </trkpt>
      <trkpt lat="32.367915" lon="-64.695628">
        <ele>1.504826</ele>
        <time>2026-04-26T09:01:39.000Z</time>
      </trkpt>
      <trkpt lat="32.367541" lon="-64.696364">
        <ele>1.483415</ele>
        <time>2026-04-26T09:01:47.000Z</time>
      </trkpt>
      <trkpt lat="32.365876" lon="-64.700377">
        <ele>1.511328</ele>
        <time>2026-04-26T09:02:29.000Z</time>
      </trkpt>
      <trkpt lat="32.365671" lon="-64.701038">
        <ele>1.579035</ele>
        <time>2026-04-26T09:02:36.000Z</time>
      </trkpt>
      <trkpt lat="32.365369" lon="-64.702335">
        <ele>1.811911</ele>
        <time>2026-04-26T09:02:49.000Z</time>
      </trkpt>
      <trkpt lat="32.365245" lon="-64.702737">
        <ele>1.896717</ele>
        <time>2026-04-26T09:02:53.000Z</time>
      </trkpt>
      <trkpt lat="32.364951" lon="-64.703646">
        <ele>1.88669</ele>
        <time>2026-04-26T09:03:02.000Z</time>
      </trkpt>
      <trkpt lat="32.36427" lon="-64.70535">
        <ele>1.125444</ele>
        <time>2026-04-26T09:03:20.000Z</time>
      </trkpt>
      <trkpt lat="32.363972" lon="-64.706128">
        <ele>0.712835</ele>
        <time>2026-04-26T09:03:28.000Z</time>
      </trkpt>
      <trkpt lat="32.363789" lon="-64.706461">
        <ele>0.518098</ele>
        <time>2026-04-26T09:03:32.000Z</time>
      </trkpt>
      <trkpt lat="32.363685" lon="-64.706569">
        <ele>0.442736</ele>
        <time>2026-04-26T09:03:34.000Z</time>
      </trkpt>
      <trkpt lat="32.36348" lon="-64.706703">
        <ele>0.313861</ele>
        <time>2026-04-26T09:03:37.000Z</time>
      </trkpt>
      <trkpt lat="32.363343" lon="-64.706748">
        <ele>0.233906</ele>
        <time>2026-04-26T09:03:39.000Z</time>
      </trkpt>
      <trkpt lat="32.362873" lon="-64.706816">
        <ele>0.144634</ele>
        <time>2026-04-26T09:03:44.000Z</time>
      </trkpt>
      <trkpt lat="32.362342" lon="-64.706851">
        <ele>0.143239</ele>
        <time>2026-04-26T09:03:50.000Z</time>
      </trkpt>
      <trkpt lat="32.362095" lon="-64.706849">
        <ele>0.142606</ele>
        <time>2026-04-26T09:03:53.000Z</time>
      </trkpt>
      <trkpt lat="32.361854" lon="-64.706785">
        <ele>0.141982</ele>
        <time>2026-04-26T09:03:56.000Z</time>
      </trkpt>
      <trkpt lat="32.360705" lon="-64.706231">
        <ele>0.162954</ele>
        <time>2026-04-26T09:04:10.000Z</time>
      </trkpt>
      <trkpt lat="32.360137" lon="-64.705878">
        <ele>0.181087</ele>
        <time>2026-04-26T09:04:17.000Z</time>
      </trkpt>
      <trkpt lat="32.360717" lon="-64.706235">
        <ele>0.175085</ele>
        <time>2026-04-26T09:04:24.000Z</time>
      </trkpt>
      <trkpt lat="32.361865" lon="-64.706792">
        <ele>0.102342</ele>
        <time>2026-04-26T09:04:38.000Z</time>
      </trkpt>
      <trkpt lat="32.362085" lon="-64.706835">
        <ele>0.088591</ele>
        <time>2026-04-26T09:04:40.000Z</time>
      </trkpt>
      <trkpt lat="32.362333" lon="-64.706854">
        <ele>0.124893</ele>
        <time>2026-04-26T09:04:43.000Z</time>
      </trkpt>
      <trkpt lat="32.362876" lon="-64.70682">
        <ele>0.228688</ele>
        <time>2026-04-26T09:04:49.000Z</time>
      </trkpt>
      <trkpt lat="32.363359" lon="-64.706746">
        <ele>0.323254</ele>
        <time>2026-04-26T09:04:54.000Z</time>
      </trkpt>
      <trkpt lat="32.363487" lon="-64.706712">
        <ele>0.350638</ele>
        <time>2026-04-26T09:04:55.000Z</time>
      </trkpt>
      <trkpt lat="32.363691" lon="-64.706574">
        <ele>0.394766</ele>
        <time>2026-04-26T09:04:58.000Z</time>
      </trkpt>
      <trkpt lat="32.363793" lon="-64.706469">
        <ele>0.420572</ele>
        <time>2026-04-26T09:05:00.000Z</time>
      </trkpt>
      <trkpt lat="32.363965" lon="-64.70612">
        <ele>0.61726</ele>
        <time>2026-04-26T09:05:04.000Z</time>
      </trkpt>
      <trkpt lat="32.364282" lon="-64.705352">
        <ele>1.109691</ele>
        <time>2026-04-26T09:05:12.000Z</time>
      </trkpt>
      <trkpt lat="32.364942" lon="-64.703629">
        <ele>1.77993</ele>
        <time>2026-04-26T09:05:30.000Z</time>
      </trkpt>
      <trkpt lat="32.365239" lon="-64.702751">
        <ele>1.913237</ele>
        <time>2026-04-26T09:05:39.000Z</time>
      </trkpt>
      <trkpt lat="32.365375" lon="-64.702329">
        <ele>1.899703</ele>
        <time>2026-04-26T09:05:43.000Z</time>
      </trkpt>
      <trkpt lat="32.365678" lon="-64.701039">
        <ele>1.590404</ele>
        <time>2026-04-26T09:05:56.000Z</time>
      </trkpt>
      <trkpt lat="32.365882" lon="-64.700377">
        <ele>1.451878</ele>
        <time>2026-04-26T09:06:03.000Z</time>
      </trkpt>
      <trkpt lat="32.367541" lon="-64.696363">
        <ele>1.443671</ele>
        <time>2026-04-26T09:06:45.000Z</time>
      </trkpt>
      <trkpt lat="32.367927" lon="-64.695636">
        <ele>1.518075</ele>
        <time>2026-04-26T09:06:53.000Z</time>
      </trkpt>
      <trkpt lat="32.36904" lon="-64.694359">
        <ele>1.572511</ele>
        <time>2026-04-26T09:07:10.000Z</time>
      </trkpt>
      <trkpt lat="32.36923" lon="-64.693982">
        <ele>1.559241</ele>
        <time>2026-04-26T09:07:14.000Z</time>
      </trkpt>
      <trkpt lat="32.369467" lon="-64.693444">
        <ele>1.540501</ele>
        <time>2026-04-26T09:07:20.000Z</time>
      </trkpt>
      <trkpt lat="32.369771" lon="-64.692477">
        <ele>1.341822</ele>
        <time>2026-04-26T09:07:30.000Z</time>
      </trkpt>
      <trkpt lat="32.369864" lon="-64.69237">
        <ele>1.307255</ele>
        <time>2026-04-26T09:07:31.000Z</time>
      </trkpt>
      <trkpt lat="32.36992" lon="-64.69234">
        <ele>1.289678</ele>
        <time>2026-04-26T09:07:32.000Z</time>
      </trkpt>
      <trkpt lat="32.369979" lon="-64.69233">
        <ele>1.271714</ele>
        <time>2026-04-26T09:07:33.000Z</time>
      </trkpt>
      <trkpt lat="32.370026" lon="-64.692261">
        <ele>1.251094</ele>
        <time>2026-04-26T09:07:34.000Z</time>
      </trkpt>
      <trkpt lat="32.370058" lon="-64.692185">
        <ele>1.230656</ele>
        <time>2026-04-26T09:07:35.000Z</time>
      </trkpt>
      <trkpt lat="32.370037" lon="-64.692079">
        <ele>1.2077</ele>
        <time>2026-04-26T09:07:36.000Z</time>
      </trkpt>
      <trkpt lat="32.370005" lon="-64.691917">
        <ele>1.169192</ele>
        <time>2026-04-26T09:07:38.000Z</time>
      </trkpt>
      <trkpt lat="32.370029" lon="-64.691789">
        <ele>1.138118</ele>
        <time>2026-04-26T09:07:39.000Z</time>
      </trkpt>
      <trkpt lat="32.370039" lon="-64.691392">
        <ele>1.047316</ele>
        <time>2026-04-26T09:07:43.000Z</time>
      </trkpt>
      <trkpt lat="32.370021" lon="-64.690884">
        <ele>0.778967</ele>
        <time>2026-04-26T09:07:48.000Z</time>
      </trkpt>
      <trkpt lat="32.369977" lon="-64.690621">
        <ele>0.637462</ele>
        <time>2026-04-26T09:07:51.000Z</time>
      </trkpt>
      <trkpt lat="32.36973" lon="-64.69">
        <ele>0.266766</ele>
        <time>2026-04-26T09:07:57.000Z</time>
      </trkpt>
      <trkpt lat="32.369663" lon="-64.689666">
        <ele>0.090396</ele>
        <time>2026-04-26T09:08:00.000Z</time>
      </trkpt>
      <trkpt lat="32.369467" lon="-64.688371">
        <ele>0.192203</ele>
        <time>2026-04-26T09:08:12.000Z</time>
      </trkpt>
      <trkpt lat="32.369482" lon="-64.68796">
        <ele>0.315305</ele>
        <time>2026-04-26T09:08:16.000Z</time>
      </trkpt>
      <trkpt lat="32.369583" lon="-64.687566">
        <ele>0.429819</ele>
        <time>2026-04-26T09:08:20.000Z</time>
      </trkpt>
      <trkpt lat="32.369758" lon="-64.687194">
        <ele>0.640764</ele>
        <time>2026-04-26T09:08:24.000Z</time>
      </trkpt>
      <trkpt lat="32.369908" lon="-64.686985">
        <ele>0.961088</ele>
        <time>2026-04-26T09:08:27.000Z</time>
      </trkpt>
      <trkpt lat="32.370708" lon="-64.686157">
        <ele>2.397264</ele>
        <time>2026-04-26T09:08:39.000Z</time>
      </trkpt>
      <trkpt lat="32.371038" lon="-64.685912">
        <ele>2.93674</ele>
        <time>2026-04-26T09:08:43.000Z</time>
      </trkpt>
      <trkpt lat="32.371135" lon="-64.685808">
        <ele>3.053074</ele>
        <time>2026-04-26T09:08:44.000Z</time>
      </trkpt>
      <trkpt lat="32.371205" lon="-64.685693">
        <ele>3.160958</ele>
        <time>2026-04-26T09:08:45.000Z</time>
      </trkpt>
      <trkpt lat="32.371233" lon="-64.685572">
        <ele>3.260433</ele>
        <time>2026-04-26T09:08:46.000Z</time>
      </trkpt>
      <trkpt lat="32.371238" lon="-64.685424">
        <ele>3.373991</ele>
        <time>2026-04-26T09:08:47.000Z</time>
      </trkpt>
      <trkpt lat="32.371228" lon="-64.685301">
        <ele>3.461196</ele>
        <time>2026-04-26T09:08:48.000Z</time>
      </trkpt>
      <trkpt lat="32.370859" lon="-64.68458">
        <ele>4.083529</ele>
        <time>2026-04-26T09:08:56.000Z</time>
      </trkpt>
      <trkpt lat="32.370678" lon="-64.684148">
        <ele>4.44872</ele>
        <time>2026-04-26T09:09:01.000Z</time>
      </trkpt>
      <trkpt lat="32.370477" lon="-64.683408">
        <ele>4.795422</ele>
        <time>2026-04-26T09:09:08.000Z</time>
      </trkpt>
      <trkpt lat="32.369522" lon="-64.680703">
        <ele>6.720826</ele>
        <time>2026-04-26T09:09:36.000Z</time>
      </trkpt>
      <trkpt lat="32.369415" lon="-64.680222">
        <ele>7.190748</ele>
        <time>2026-04-26T09:09:41.000Z</time>
      </trkpt>
      <trkpt lat="32.3694" lon="-64.679619">
        <ele>8.026189</ele>
        <time>2026-04-26T09:09:47.000Z</time>
      </trkpt>
      <trkpt lat="32.36945" lon="-64.679268">
        <ele>8.580053</ele>
        <time>2026-04-26T09:09:50.000Z</time>
      </trkpt>
      <trkpt lat="32.369708" lon="-64.678165">
        <ele>10.380384</ele>
        <time>2026-04-26T09:10:01.000Z</time>
      </trkpt>
      <trkpt lat="32.369712" lon="-64.678015">
        <ele>10.621227</ele>
        <time>2026-04-26T09:10:02.000Z</time>
      </trkpt>
      <trkpt lat="32.369669" lon="-64.677858">
        <ele>11.001344</ele>
        <time>2026-04-26T09:10:04.000Z</time>
      </trkpt>
      <trkpt lat="32.369408" lon="-64.677355">
        <ele>12.84718</ele>
        <time>2026-04-26T09:10:10.000Z</time>
      </trkpt>
      <trkpt lat="32.369406" lon="-64.677243">
        <ele>13.213649</ele>
        <time>2026-04-26T09:10:11.000Z</time>
      </trkpt>
      <trkpt lat="32.36952" lon="-64.676711">
        <ele>14.980565</ele>
        <time>2026-04-26T09:10:16.000Z</time>
      </trkpt>
      <trkpt lat="32.369645" lon="-64.675764">
        <ele>17.732881</ele>
        <time>2026-04-26T09:10:25.000Z</time>
      </trkpt>
      <trkpt lat="32.369642" lon="-64.675507">
        <ele>18.189971</ele>
        <time>2026-04-26T09:10:27.000Z</time>
      </trkpt>
      <trkpt lat="32.369416" lon="-64.67469">
        <ele>19.697207</ele>
        <time>2026-04-26T09:10:35.000Z</time>
      </trkpt>
      <trkpt lat="32.369414" lon="-64.674629">
        <ele>19.805221</ele>
        <time>2026-04-26T09:10:36.000Z</time>
      </trkpt>
      <trkpt lat="32.369366" lon="-64.674338">
        <ele>20.336173</ele>
        <time>2026-04-26T09:10:39.000Z</time>
      </trkpt>
      <trkpt lat="32.369315" lon="-64.674246">
        <ele>20.515735</ele>
        <time>2026-04-26T09:10:40.000Z</time>
      </trkpt>
      <trkpt lat="32.36888" lon="-64.673923">
        <ele>21.073274</ele>
        <time>2026-04-26T09:10:46.000Z</time>
      </trkpt>
      <trkpt lat="32.368686" lon="-64.673586">
        <ele>20.886432</ele>
        <time>2026-04-26T09:10:50.000Z</time>
      </trkpt>
      <trkpt lat="32.368448" lon="-64.673398">
        <ele>20.71813</ele>
        <time>2026-04-26T09:10:53.000Z</time>
      </trkpt>
      <trkpt lat="32.368262" lon="-64.673198">
        <ele>20.574341</ele>
        <time>2026-04-26T09:10:56.000Z</time>
      </trkpt>
      <trkpt lat="32.367986" lon="-64.672934">
        <ele>20.376618</ele>
        <time>2026-04-26T09:11:00.000Z</time>
      </trkpt>
      <trkpt lat="32.367917" lon="-64.672764">
        <ele>20.282763</ele>
        <time>2026-04-26T09:11:02.000Z</time>
      </trkpt>
      <trkpt lat="32.367771" lon="-64.672015">
        <ele>19.372981</ele>
        <time>2026-04-26T09:11:09.000Z</time>
      </trkpt>
      <trkpt lat="32.367753" lon="-64.671848">
        <ele>19.119715</ele>
        <time>2026-04-26T09:11:11.000Z</time>
      </trkpt>
      <trkpt lat="32.367761" lon="-64.671617">
        <ele>18.760578</ele>
        <time>2026-04-26T09:11:13.000Z</time>
      </trkpt>
      <trkpt lat="32.367846" lon="-64.671226">
        <ele>18.134175</ele>
        <time>2026-04-26T09:11:17.000Z</time>
      </trkpt>
      <trkpt lat="32.367851" lon="-64.670892">
        <ele>17.625339</ele>
        <time>2026-04-26T09:11:20.000Z</time>
      </trkpt>
      <trkpt lat="32.367822" lon="-64.670577">
        <ele>17.117013</ele>
        <time>2026-04-26T09:11:23.000Z</time>
      </trkpt>
      <trkpt lat="32.367736" lon="-64.670191">
        <ele>16.285746</ele>
        <time>2026-04-26T09:11:27.000Z</time>
      </trkpt>
      <trkpt lat="32.367647" lon="-64.669972">
        <ele>15.695083</ele>
        <time>2026-04-26T09:11:29.000Z</time>
      </trkpt>
      <trkpt lat="32.367405" lon="-64.669534">
        <ele>14.463811</ele>
        <time>2026-04-26T09:11:34.000Z</time>
      </trkpt>
      <trkpt lat="32.36728" lon="-64.669332">
        <ele>13.84794</ele>
        <time>2026-04-26T09:11:36.000Z</time>
      </trkpt>
      <trkpt lat="32.367167" lon="-64.669176">
        <ele>13.375405</ele>
        <time>2026-04-26T09:11:38.000Z</time>
      </trkpt>
      <trkpt lat="32.3671" lon="-64.669113">
        <ele>13.107803</ele>
        <time>2026-04-26T09:11:39.000Z</time>
      </trkpt>
      <trkpt lat="32.366819" lon="-64.668913">
        <ele>12.200518</ele>
        <time>2026-04-26T09:11:43.000Z</time>
      </trkpt>
      <trkpt lat="32.366747" lon="-64.66881">
        <ele>11.861853</ele>
        <time>2026-04-26T09:11:44.000Z</time>
      </trkpt>
      <trkpt lat="32.366588" lon="-64.668146">
        <ele>10.617999</ele>
        <time>2026-04-26T09:11:50.000Z</time>
      </trkpt>
      <trkpt lat="32.36643" lon="-64.667654">
        <ele>9.667723</ele>
        <time>2026-04-26T09:11:55.000Z</time>
      </trkpt>
      <trkpt lat="32.365999" lon="-64.667316">
        <ele>8.586655</ele>
        <time>2026-04-26T09:12:01.000Z</time>
      </trkpt>
      <trkpt lat="32.365752" lon="-64.667147">
        <ele>7.998298</ele>
        <time>2026-04-26T09:12:04.000Z</time>
      </trkpt>
      <trkpt lat="32.365719" lon="-64.667008">
        <ele>7.890441</ele>
        <time>2026-04-26T09:12:05.000Z</time>
      </trkpt>
      <trkpt lat="32.365671" lon="-64.666464">
        <ele>7.56092</ele>
        <time>2026-04-26T09:12:10.000Z</time>
      </trkpt>
      <trkpt lat="32.365649" lon="-64.666048">
        <ele>7.309904</ele>
        <time>2026-04-26T09:12:14.000Z</time>
      </trkpt>
      <trkpt lat="32.36569" lon="-64.665814">
        <ele>7.166801</ele>
        <time>2026-04-26T09:12:16.000Z</time>
      </trkpt>
      <trkpt lat="32.365673" lon="-64.665635">
        <ele>7.065325</ele>
        <time>2026-04-26T09:12:18.000Z</time>
      </trkpt>
      <trkpt lat="32.365616" lon="-64.665465">
        <ele>6.951579</ele>
        <time>2026-04-26T09:12:20.000Z</time>
      </trkpt>
      <trkpt lat="32.365172" lon="-64.664755">
        <ele>6.353804</ele>
        <time>2026-04-26T09:12:28.000Z</time>
      </trkpt>
      <trkpt lat="32.365086" lon="-64.664317">
        <ele>6.014892</ele>
        <time>2026-04-26T09:12:32.000Z</time>
      </trkpt>
      <trkpt lat="32.365054" lon="-64.663977">
        <ele>5.757724</ele>
        <time>2026-04-26T09:12:35.000Z</time>
      </trkpt>
      <trkpt lat="32.365064" lon="-64.663721">
        <ele>5.560983</ele>
        <time>2026-04-26T09:12:37.000Z</time>
      </trkpt>
      <trkpt lat="32.36523" lon="-64.663013">
        <ele>5.035899</ele>
        <time>2026-04-26T09:12:44.000Z</time>
      </trkpt>
      <trkpt lat="32.365228" lon="-64.662864">
        <ele>4.960079</ele>
        <time>2026-04-26T09:12:45.000Z</time>
      </trkpt>
      <trkpt lat="32.36512" lon="-64.662506">
        <ele>4.780895</ele>
        <time>2026-04-26T09:12:49.000Z</time>
      </trkpt>
      <trkpt lat="32.365154" lon="-64.661716">
        <ele>4.407031</ele>
        <time>2026-04-26T09:12:56.000Z</time>
      </trkpt>
      <trkpt lat="32.365115" lon="-64.661501">
        <ele>4.311502</ele>
        <time>2026-04-26T09:12:58.000Z</time>
      </trkpt>
      <trkpt lat="32.364813" lon="-64.660666">
        <ele>4.940116</ele>
        <time>2026-04-26T09:13:07.000Z</time>
      </trkpt>
      <trkpt lat="32.364758" lon="-64.660437">
        <ele>5.389741</ele>
        <time>2026-04-26T09:13:09.000Z</time>
      </trkpt>
      <trkpt lat="32.36473" lon="-64.660231">
        <ele>5.841459</ele>
        <time>2026-04-26T09:13:11.000Z</time>
      </trkpt>
      <trkpt lat="32.364741" lon="-64.660069">
        <ele>6.17537</ele>
        <time>2026-04-26T09:13:13.000Z</time>
      </trkpt>
      <trkpt lat="32.364787" lon="-64.659911">
        <ele>6.510086</ele>
        <time>2026-04-26T09:13:15.000Z</time>
      </trkpt>
      <trkpt lat="32.365111" lon="-64.659335">
        <ele>7.91576</ele>
        <time>2026-04-26T09:13:22.000Z</time>
      </trkpt>
      <trkpt lat="32.365309" lon="-64.659024">
        <ele>8.816066</ele>
        <time>2026-04-26T09:13:26.000Z</time>
      </trkpt>
      <trkpt lat="32.365458" lon="-64.658456">
        <ele>10.737902</ele>
        <time>2026-04-26T09:13:32.000Z</time>
      </trkpt>
      <trkpt lat="32.365502" lon="-64.658389">
        <ele>11.014435</ele>
        <time>2026-04-26T09:13:33.000Z</time>
      </trkpt>
      <trkpt lat="32.365314" lon="-64.658272">
        <ele>11.824559</ele>
        <time>2026-04-26T09:13:35.000Z</time>
      </trkpt>
      <trkpt lat="32.365022" lon="-64.658159">
        <ele>12.950721</ele>
        <time>2026-04-26T09:13:38.000Z</time>
      </trkpt>
      <trkpt lat="32.364669" lon="-64.65806">
        <ele>14.293347</ele>
        <time>2026-04-26T09:13:42.000Z</time>
      </trkpt>
      <trkpt lat="32.364521" lon="-64.658027">
        <ele>14.911906</ele>
        <time>2026-04-26T09:13:44.000Z</time>
      </trkpt>
      <trkpt lat="32.364419" lon="-64.658018">
        <ele>15.015529</ele>
        <time>2026-04-26T09:13:45.000Z</time>
      </trkpt>
      <trkpt lat="32.364268" lon="-64.65791">
        <ele>14.690706</ele>
        <time>2026-04-26T09:13:47.000Z</time>
      </trkpt>
      <trkpt lat="32.363984" lon="-64.658253">
        <ele>13.913222</ele>
        <time>2026-04-26T09:13:52.000Z</time>
      </trkpt>
      <trkpt lat="32.363854" lon="-64.658127">
        <ele>13.583089</ele>
        <time>2026-04-26T09:13:54.000Z</time>
      </trkpt>
      <trkpt lat="32.363706" lon="-64.65812">
        <ele>13.319105</ele>
        <time>2026-04-26T09:13:56.000Z</time>
      </trkpt>
      <trkpt lat="32.363404" lon="-64.658225">
        <ele>12.70596</ele>
        <time>2026-04-26T09:14:00.000Z</time>
      </trkpt>
      <trkpt lat="32.363166" lon="-64.658386">
        <ele>12.165503</ele>
        <time>2026-04-26T09:14:03.000Z</time>
      </trkpt>
      <trkpt lat="32.362951" lon="-64.658561">
        <ele>11.675897</ele>
        <time>2026-04-26T09:14:06.000Z</time>
      </trkpt>
      <trkpt lat="32.362791" lon="-64.658767">
        <ele>10.742282</ele>
        <time>2026-04-26T09:14:09.000Z</time>
      </trkpt>
      <trkpt lat="32.362592" lon="-64.659056">
        <ele>9.477489</ele>
        <time>2026-04-26T09:14:13.000Z</time>
      </trkpt>
      <trkpt lat="32.362338" lon="-64.659619">
        <ele>7.317901</ele>
        <time>2026-04-26T09:14:19.000Z</time>
      </trkpt>
      <trkpt lat="32.362209" lon="-64.65965">
        <ele>6.79993</ele>
        <time>2026-04-26T09:14:20.000Z</time>
      </trkpt>
      <trkpt lat="32.36218" lon="-64.659643">
        <ele>6.628591</ele>
        <time>2026-04-26T09:14:20.000Z</time>
      </trkpt>
      <trkpt lat="32.362125" lon="-64.659656">
        <ele>6.412729</ele>
        <time>2026-04-26T09:14:21.000Z</time>
      </trkpt>
      <trkpt lat="32.361915" lon="-64.659728">
        <ele>5.561083</ele>
        <time>2026-04-26T09:14:23.000Z</time>
      </trkpt>
      <trkpt lat="32.358382" lon="-64.660585">
        <ele>0.781456</ele>
        <time>2026-04-26T09:15:03.000Z</time>
      </trkpt>
      <trkpt lat="32.356893" lon="-64.660926">
        <ele>0.579533</ele>
        <time>2026-04-26T09:15:20.000Z</time>
      </trkpt>
      <trkpt lat="32.355731" lon="-64.661031">
        <ele>0.594864</ele>
        <time>2026-04-26T09:15:33.000Z</time>
      </trkpt>
      <trkpt lat="32.355443" lon="-64.661009">
        <ele>0.594514</ele>
        <time>2026-04-26T09:15:36.000Z</time>
      </trkpt>
      <trkpt lat="32.355724" lon="-64.661024">
        <ele>0.59418</ele>
        <time>2026-04-26T09:15:39.000Z</time>
      </trkpt>
      <trkpt lat="32.356891" lon="-64.660938">
        <ele>0.5775</ele>
        <time>2026-04-26T09:15:52.000Z</time>
      </trkpt>
      <trkpt lat="32.358372" lon="-64.660587">
        <ele>0.747842</ele>
        <time>2026-04-26T09:16:09.000Z</time>
      </trkpt>
      <trkpt lat="32.36192" lon="-64.659725">
        <ele>5.130601</ele>
        <time>2026-04-26T09:16:49.000Z</time>
      </trkpt>
      <trkpt lat="32.362014" lon="-64.659775">
        <ele>5.525286</ele>
        <time>2026-04-26T09:16:50.000Z</time>
      </trkpt>
      <trkpt lat="32.362086" lon="-64.659855">
        <ele>5.90964</ele>
        <time>2026-04-26T09:16:51.000Z</time>
      </trkpt>
      <trkpt lat="32.362131" lon="-64.659884">
        <ele>6.098926</ele>
        <time>2026-04-26T09:16:52.000Z</time>
      </trkpt>
      <trkpt lat="32.362202" lon="-64.659888">
        <ele>6.348657</ele>
        <time>2026-04-26T09:16:53.000Z</time>
      </trkpt>
      <trkpt lat="32.362229" lon="-64.659865">
        <ele>6.548717</ele>
        <time>2026-04-26T09:16:53.000Z</time>
      </trkpt>
      <trkpt lat="32.362248" lon="-64.659807">
        <ele>6.745159</ele>
        <time>2026-04-26T09:16:54.000Z</time>
      </trkpt>
      <trkpt lat="32.36234" lon="-64.659609">
        <ele>7.440373</ele>
        <time>2026-04-26T09:16:56.000Z</time>
      </trkpt>
      <trkpt lat="32.362586" lon="-64.659051">
        <ele>9.491307</ele>
        <time>2026-04-26T09:17:02.000Z</time>
      </trkpt>
      <trkpt lat="32.362788" lon="-64.658765">
        <ele>10.692441</ele>
        <time>2026-04-26T09:17:06.000Z</time>
      </trkpt>
      <trkpt lat="32.362958" lon="-64.658554">
        <ele>11.381906</ele>
        <time>2026-04-26T09:17:09.000Z</time>
      </trkpt>
      <trkpt lat="32.363165" lon="-64.658378">
        <ele>11.991681</ele>
        <time>2026-04-26T09:17:12.000Z</time>
      </trkpt>
      <trkpt lat="32.363414" lon="-64.658213">
        <ele>12.664794</ele>
        <time>2026-04-26T09:17:15.000Z</time>
      </trkpt>
      <trkpt lat="32.363713" lon="-64.658123">
        <ele>13.428446</ele>
        <time>2026-04-26T09:17:18.000Z</time>
      </trkpt>
      <trkpt lat="32.363851" lon="-64.658132">
        <ele>13.757235</ele>
        <time>2026-04-26T09:17:20.000Z</time>
      </trkpt>
      <trkpt lat="32.363992" lon="-64.658243">
        <ele>14.168403</ele>
        <time>2026-04-26T09:17:22.000Z</time>
      </trkpt>
      <trkpt lat="32.364266" lon="-64.657918">
        <ele>15.136721</ele>
        <time>2026-04-26T09:17:26.000Z</time>
      </trkpt>
      <trkpt lat="32.364422" lon="-64.658015">
        <ele>14.928032</ele>
        <time>2026-04-26T09:17:28.000Z</time>
      </trkpt>
      <trkpt lat="32.364686" lon="-64.658065">
        <ele>14.020786</ele>
        <time>2026-04-26T09:17:31.000Z</time>
      </trkpt>
      <trkpt lat="32.365034" lon="-64.658153">
        <ele>12.773892</ele>
        <time>2026-04-26T09:17:35.000Z</time>
      </trkpt>
      <trkpt lat="32.365324" lon="-64.658272">
        <ele>11.728043</ele>
        <time>2026-04-26T09:17:38.000Z</time>
      </trkpt>
      <trkpt lat="32.3655" lon="-64.658376">
        <ele>10.975693</ele>
        <time>2026-04-26T09:17:40.000Z</time>
      </trkpt>
      <trkpt lat="32.36546" lon="-64.658459">
        <ele>10.718873</ele>
        <time>2026-04-26T09:17:41.000Z</time>
      </trkpt>
      <trkpt lat="32.365297" lon="-64.65903">
        <ele>8.962116</ele>
        <time>2026-04-26T09:17:47.000Z</time>
      </trkpt>
      <trkpt lat="32.365113" lon="-64.659331">
        <ele>8.10524</ele>
        <time>2026-04-26T09:17:50.000Z</time>
      </trkpt>
      <trkpt lat="32.364783" lon="-64.659906">
        <ele>6.508637</ele>
        <time>2026-04-26T09:17:57.000Z</time>
      </trkpt>
      <trkpt lat="32.364745" lon="-64.660058">
        <ele>6.128435</ele>
        <time>2026-04-26T09:17:58.000Z</time>
      </trkpt>
      <trkpt lat="32.364742" lon="-64.660225">
        <ele>5.749158</ele>
        <time>2026-04-26T09:18:00.000Z</time>
      </trkpt>
      <trkpt lat="32.364766" lon="-64.660443">
        <ele>5.236085</ele>
        <time>2026-04-26T09:18:02.000Z</time>
      </trkpt>
      <trkpt lat="32.364799" lon="-64.660668">
        <ele>4.725384</ele>
        <time>2026-04-26T09:18:04.000Z</time>
      </trkpt>
      <trkpt lat="32.365116" lon="-64.661518">
        <ele>4.403498</ele>
        <time>2026-04-26T09:18:13.000Z</time>
      </trkpt>
      <trkpt lat="32.365151" lon="-64.661711">
        <ele>4.478832</ele>
        <time>2026-04-26T09:18:15.000Z</time>
      </trkpt>
      <trkpt lat="32.365118" lon="-64.662492">
        <ele>4.773701</ele>
        <time>2026-04-26T09:18:22.000Z</time>
      </trkpt>
      <trkpt lat="32.365215" lon="-64.662867">
        <ele>4.915018</ele>
        <time>2026-04-26T09:18:26.000Z</time>
      </trkpt>
      <trkpt lat="32.365226" lon="-64.663027">
        <ele>5.007882</ele>
        <time>2026-04-26T09:18:28.000Z</time>
      </trkpt>
      <trkpt lat="32.365053" lon="-64.663723">
        <ele>5.569185</ele>
        <time>2026-04-26T09:18:35.000Z</time>
      </trkpt>
      <trkpt lat="32.365059" lon="-64.663983">
        <ele>5.76943</ele>
        <time>2026-04-26T09:18:37.000Z</time>
      </trkpt>
      <trkpt lat="32.365078" lon="-64.664322">
        <ele>6.031165</ele>
        <time>2026-04-26T09:18:40.000Z</time>
      </trkpt>
      <trkpt lat="32.365164" lon="-64.664764">
        <ele>6.376093</ele>
        <time>2026-04-26T09:18:44.000Z</time>
      </trkpt>
      <trkpt lat="32.365218" lon="-64.664818">
        <ele>6.441343</ele>
        <time>2026-04-26T09:18:45.000Z</time>
      </trkpt>
      <trkpt lat="32.365249" lon="-64.664884">
        <ele>6.490199</ele>
        <time>2026-04-26T09:18:46.000Z</time>
      </trkpt>
      <trkpt lat="32.36559" lon="-64.66542">
        <ele>6.905868</ele>
        <time>2026-04-26T09:18:52.000Z</time>
      </trkpt>
      <trkpt lat="32.365617" lon="-64.665456">
        <ele>6.933977</ele>
        <time>2026-04-26T09:18:52.000Z</time>
      </trkpt>
      <trkpt lat="32.365687" lon="-64.665633">
        <ele>7.04278</ele>
        <time>2026-04-26T09:18:54.000Z</time>
      </trkpt>
      <trkpt lat="32.365682" lon="-64.665797">
        <ele>7.139872</ele>
        <time>2026-04-26T09:18:56.000Z</time>
      </trkpt>
      <trkpt lat="32.365646" lon="-64.666046">
        <ele>7.276759</ele>
        <time>2026-04-26T09:18:58.000Z</time>
      </trkpt>
      <trkpt lat="32.365661" lon="-64.666459">
        <ele>7.516905</ele>
        <time>2026-04-26T09:19:02.000Z</time>
      </trkpt>
      <trkpt lat="32.365704" lon="-64.667012">
        <ele>7.886176</ele>
        <time>2026-04-26T09:19:07.000Z</time>
      </trkpt>
      <trkpt lat="32.365753" lon="-64.667135">
        <ele>8.127819</ele>
        <time>2026-04-26T09:19:08.000Z</time>
      </trkpt>
      <trkpt lat="32.365995" lon="-64.667324">
        <ele>8.677897</ele>
        <time>2026-04-26T09:19:11.000Z</time>
      </trkpt>
      <trkpt lat="32.366415" lon="-64.667652">
        <ele>9.688649</ele>
        <time>2026-04-26T09:19:17.000Z</time>
      </trkpt>
      <trkpt lat="32.366591" lon="-64.668154">
        <ele>10.577102</ele>
        <time>2026-04-26T09:19:22.000Z</time>
      </trkpt>
      <trkpt lat="32.366756" lon="-64.668805">
        <ele>11.876081</ele>
        <time>2026-04-26T09:19:28.000Z</time>
      </trkpt>
      <trkpt lat="32.36682" lon="-64.66891">
        <ele>12.213675</ele>
        <time>2026-04-26T09:19:29.000Z</time>
      </trkpt>
      <trkpt lat="32.367098" lon="-64.669119">
        <ele>13.118082</ele>
        <time>2026-04-26T09:19:33.000Z</time>
      </trkpt>
      <trkpt lat="32.367173" lon="-64.669176">
        <ele>13.384852</ele>
        <time>2026-04-26T09:19:34.000Z</time>
      </trkpt>
      <trkpt lat="32.367285" lon="-64.669328">
        <ele>13.855886</ele>
        <time>2026-04-26T09:19:36.000Z</time>
      </trkpt>
      <trkpt lat="32.367405" lon="-64.66953">
        <ele>14.469821</ele>
        <time>2026-04-26T09:19:38.000Z</time>
      </trkpt>
      <trkpt lat="32.367654" lon="-64.669954">
        <ele>15.697188</ele>
        <time>2026-04-26T09:19:43.000Z</time>
      </trkpt>
      <trkpt lat="32.36774" lon="-64.670179">
        <ele>16.285996</ele>
        <time>2026-04-26T09:19:45.000Z</time>
      </trkpt>
      <trkpt lat="32.367821" lon="-64.670568">
        <ele>17.011872</ele>
        <time>2026-04-26T09:19:49.000Z</time>
      </trkpt>
      <trkpt lat="32.367845" lon="-64.670906">
        <ele>17.568766</ele>
        <time>2026-04-26T09:19:52.000Z</time>
      </trkpt>
      <trkpt lat="32.367848" lon="-64.671234">
        <ele>18.126223</ele>
        <time>2026-04-26T09:19:55.000Z</time>
      </trkpt>
      <trkpt lat="32.367769" lon="-64.67162">
        <ele>18.812483</ele>
        <time>2026-04-26T09:19:59.000Z</time>
      </trkpt>
      <trkpt lat="32.367754" lon="-64.671863">
        <ele>19.205944</ele>
        <time>2026-04-26T09:20:01.000Z</time>
      </trkpt>
      <trkpt lat="32.367767" lon="-64.672013">
        <ele>19.483424</ele>
        <time>2026-04-26T09:20:02.000Z</time>
      </trkpt>
      <trkpt lat="32.367919" lon="-64.672769">
        <ele>20.270017</ele>
        <time>2026-04-26T09:20:09.000Z</time>
      </trkpt>
      <trkpt lat="32.367995" lon="-64.672926">
        <ele>20.37097</ele>
        <time>2026-04-26T09:20:11.000Z</time>
      </trkpt>
      <trkpt lat="32.368249" lon="-64.673199">
        <ele>20.583657</ele>
        <time>2026-04-26T09:20:15.000Z</time>
      </trkpt>
      <trkpt lat="32.368446" lon="-64.673413">
        <ele>20.738344</ele>
        <time>2026-04-26T09:20:18.000Z</time>
      </trkpt>
      <trkpt lat="32.368688" lon="-64.673595">
        <ele>20.919387</ele>
        <time>2026-04-26T09:20:21.000Z</time>
      </trkpt>
      <trkpt lat="32.368882" lon="-64.673916">
        <ele>21.120368</ele>
        <time>2026-04-26T09:20:25.000Z</time>
      </trkpt>
      <trkpt lat="32.369303" lon="-64.674248">
        <ele>20.3398</ele>
        <time>2026-04-26T09:20:31.000Z</time>
      </trkpt>
      <trkpt lat="32.369364" lon="-64.674335">
        <ele>20.191628</ele>
        <time>2026-04-26T09:20:32.000Z</time>
      </trkpt>
      <trkpt lat="32.369416" lon="-64.674637">
        <ele>19.753481</ele>
        <time>2026-04-26T09:20:35.000Z</time>
      </trkpt>
      <trkpt lat="32.369408" lon="-64.674689">
        <ele>19.664347</ele>
        <time>2026-04-26T09:20:35.000Z</time>
      </trkpt>
      <trkpt lat="32.369643" lon="-64.675513">
        <ele>18.420566</ele>
        <time>2026-04-26T09:20:43.000Z</time>
      </trkpt>
      <trkpt lat="32.369659" lon="-64.675776">
        <ele>18.027107</ele>
        <time>2026-04-26T09:20:45.000Z</time>
      </trkpt>
      <trkpt lat="32.369522" lon="-64.676701">
        <ele>14.925975</ele>
        <time>2026-04-26T09:20:54.000Z</time>
      </trkpt>
      <trkpt lat="32.369399" lon="-64.677241">
        <ele>13.091444</ele>
        <time>2026-04-26T09:20:59.000Z</time>
      </trkpt>
      <trkpt lat="32.36941" lon="-64.677356">
        <ele>12.71095</ele>
        <time>2026-04-26T09:21:00.000Z</time>
      </trkpt>
      <trkpt lat="32.369674" lon="-64.677868">
        <ele>10.940489</ele>
        <time>2026-04-26T09:21:06.000Z</time>
      </trkpt>
      <trkpt lat="32.369706" lon="-64.678003">
        <ele>10.694581</ele>
        <time>2026-04-26T09:21:07.000Z</time>
      </trkpt>
      <trkpt lat="32.369711" lon="-64.678168">
        <ele>10.447143</ele>
        <time>2026-04-26T09:21:09.000Z</time>
      </trkpt>
      <trkpt lat="32.369445" lon="-64.679267">
        <ele>8.597426</ele>
        <time>2026-04-26T09:21:20.000Z</time>
      </trkpt>
      <trkpt lat="32.369406" lon="-64.67961">
        <ele>8.028362</ele>
        <time>2026-04-26T09:21:23.000Z</time>
      </trkpt>
      <trkpt lat="32.369424" lon="-64.680228">
        <ele>7.26286</ele>
        <time>2026-04-26T09:21:29.000Z</time>
      </trkpt>
      <trkpt lat="32.369514" lon="-64.680714">
        <ele>6.750938</ele>
        <time>2026-04-26T09:21:34.000Z</time>
      </trkpt>
      <trkpt lat="32.370465" lon="-64.683407">
        <ele>4.790374</ele>
        <time>2026-04-26T09:22:01.000Z</time>
      </trkpt>
      <trkpt lat="32.370669" lon="-64.684158">
        <ele>4.393629</ele>
        <time>2026-04-26T09:22:08.000Z</time>
      </trkpt>
      <trkpt lat="32.370851" lon="-64.684587">
        <ele>4.063359</ele>
        <time>2026-04-26T09:22:13.000Z</time>
      </trkpt>
      <trkpt lat="32.371218" lon="-64.685303">
        <ele>3.500532</ele>
        <time>2026-04-26T09:22:21.000Z</time>
      </trkpt>
      <trkpt lat="32.371243" lon="-64.685409">
        <ele>3.421662</ele>
        <time>2026-04-26T09:22:22.000Z</time>
      </trkpt>
      <trkpt lat="32.371246" lon="-64.685572">
        <ele>3.318949</ele>
        <time>2026-04-26T09:22:24.000Z</time>
      </trkpt>
      <trkpt lat="32.371192" lon="-64.685686">
        <ele>3.228996</ele>
        <time>2026-04-26T09:22:25.000Z</time>
      </trkpt>
      <trkpt lat="32.37114" lon="-64.685814">
        <ele>3.104186</ele>
        <time>2026-04-26T09:22:26.000Z</time>
      </trkpt>
      <trkpt lat="32.371049" lon="-64.68591">
        <ele>2.936327</ele>
        <time>2026-04-26T09:22:27.000Z</time>
      </trkpt>
      <trkpt lat="32.370712" lon="-64.686165">
        <ele>2.386854</ele>
        <time>2026-04-26T09:22:31.000Z</time>
      </trkpt>
      <trkpt lat="32.369905" lon="-64.686988">
        <ele>0.924056</ele>
        <time>2026-04-26T09:22:43.000Z</time>
      </trkpt>
      <trkpt lat="32.369756" lon="-64.687198">
        <ele>0.656141</ele>
        <time>2026-04-26T09:22:46.000Z</time>
      </trkpt>
      <trkpt lat="32.369581" lon="-64.687563">
        <ele>0.491499</ele>
        <time>2026-04-26T09:22:50.000Z</time>
      </trkpt>
      <trkpt lat="32.369486" lon="-64.687955">
        <ele>0.338485</ele>
        <time>2026-04-26T09:22:54.000Z</time>
      </trkpt>
      <trkpt lat="32.369464" lon="-64.688379">
        <ele>0.173981</ele>
        <time>2026-04-26T09:22:58.000Z</time>
      </trkpt>
      <trkpt lat="32.369652" lon="-64.689669">
        <ele>0.127823</ele>
        <time>2026-04-26T09:23:10.000Z</time>
      </trkpt>
      <trkpt lat="32.369723" lon="-64.689999">
        <ele>0.29639</ele>
        <time>2026-04-26T09:23:13.000Z</time>
      </trkpt>
      <trkpt lat="32.369985" lon="-64.690621">
        <ele>0.650724</ele>
        <time>2026-04-26T09:23:20.000Z</time>
      </trkpt>
      <trkpt lat="32.370036" lon="-64.690889">
        <ele>0.785981</ele>
        <time>2026-04-26T09:23:23.000Z</time>
      </trkpt>
      <trkpt lat="32.370049" lon="-64.691383">
        <ele>0.999544</ele>
        <time>2026-04-26T09:23:28.000Z</time>
      </trkpt>
      <trkpt lat="32.37004" lon="-64.691777">
        <ele>1.105277</ele>
        <time>2026-04-26T09:23:32.000Z</time>
      </trkpt>
      <trkpt lat="32.369917" lon="-64.692003">
        <ele>1.175236</ele>
        <time>2026-04-26T09:23:35.000Z</time>
      </trkpt>
      <trkpt lat="32.369872" lon="-64.692002">
        <ele>1.188272</ele>
        <time>2026-04-26T09:23:36.000Z</time>
      </trkpt>
      <trkpt lat="32.369802" lon="-64.692075">
        <ele>1.218518</ele>
        <time>2026-04-26T09:23:37.000Z</time>
      </trkpt>
      <trkpt lat="32.369761" lon="-64.692174">
        <ele>1.248822</ele>
        <time>2026-04-26T09:23:38.000Z</time>
      </trkpt>
      <trkpt lat="32.36979" lon="-64.692262">
        <ele>1.269034</ele>
        <time>2026-04-26T09:23:39.000Z</time>
      </trkpt>
      <trkpt lat="32.369759" lon="-64.692469">
        <ele>1.328197</ele>
        <time>2026-04-26T09:23:41.000Z</time>
      </trkpt>
      <trkpt lat="32.369455" lon="-64.693435">
        <ele>1.532833</ele>
        <time>2026-04-26T09:23:51.000Z</time>
      </trkpt>
      <trkpt lat="32.369238" lon="-64.693993">
        <ele>1.558441</ele>
        <time>2026-04-26T09:23:57.000Z</time>
      </trkpt>
      <trkpt lat="32.369029" lon="-64.694353">
        <ele>1.576576</ele>
        <time>2026-04-26T09:24:01.000Z</time>
      </trkpt>
      <trkpt lat="32.367918" lon="-64.695629">
        <ele>1.514504</ele>
        <time>2026-04-26T09:24:18.000Z</time>
      </trkpt>
      <trkpt lat="32.367545" lon="-64.696372">
        <ele>1.438655</ele>
        <time>2026-04-26T09:24:26.000Z</time>
      </trkpt>
      <trkpt lat="32.365872" lon="-64.700378">
        <ele>1.444376</ele>
        <time>2026-04-26T09:25:08.000Z</time>
      </trkpt>
      <trkpt lat="32.36566" lon="-64.701046">
        <ele>1.601035</ele>
        <time>2026-04-26T09:25:15.000Z</time>
      </trkpt>
      <trkpt lat="32.365366" lon="-64.702336">
        <ele>1.901123</ele>
        <time>2026-04-26T09:25:28.000Z</time>
      </trkpt>
      <trkpt lat="32.365242" lon="-64.702737">
        <ele>1.882371</ele>
        <time>2026-04-26T09:25:32.000Z</time>
      </trkpt>
      <trkpt lat="32.364941" lon="-64.703634">
        <ele>1.786281</ele>
        <time>2026-04-26T09:25:41.000Z</time>
      </trkpt>
      <trkpt lat="32.364276" lon="-64.705352">
        <ele>1.098835</ele>
        <time>2026-04-26T09:25:59.000Z</time>
      </trkpt>
      <trkpt lat="32.363977" lon="-64.706127">
        <ele>0.610278</ele>
        <time>2026-04-26T09:26:07.000Z</time>
      </trkpt>
      <trkpt lat="32.363786" lon="-64.706469">
        <ele>0.457796</ele>
        <time>2026-04-26T09:26:11.000Z</time>
      </trkpt>
      <trkpt lat="32.363684" lon="-64.706567">
        <ele>0.426778</ele>
        <time>2026-04-26T09:26:12.000Z</time>
      </trkpt>
      <trkpt lat="32.363486" lon="-64.706699">
        <ele>0.373744</ele>
        <time>2026-04-26T09:26:15.000Z</time>
      </trkpt>
      <trkpt lat="32.363361" lon="-64.706759">
        <ele>0.340838</ele>
        <time>2026-04-26T09:26:16.000Z</time>
      </trkpt>
      <trkpt lat="32.362863" lon="-64.706803">
        <ele>0.227208</ele>
        <time>2026-04-26T09:26:22.000Z</time>
      </trkpt>
      <trkpt lat="32.362324" lon="-64.706859">
        <ele>0.102468</ele>
        <time>2026-04-26T09:26:28.000Z</time>
      </trkpt>
      <trkpt lat="32.362094" lon="-64.706847">
        <ele>0.089016</ele>
        <time>2026-04-26T09:26:31.000Z</time>
      </trkpt>
      <trkpt lat="32.36187" lon="-64.706794">
        <ele>0.10314</ele>
        <time>2026-04-26T09:26:34.000Z</time>
      </trkpt>
      <trkpt lat="32.360715" lon="-64.706237">
        <ele>0.177787</ele>
        <time>2026-04-26T09:26:48.000Z</time>
      </trkpt>
      <trkpt lat="32.360136" lon="-64.705879">
        <ele>0.177578</ele>
        <time>2026-04-26T09:26:55.000Z</time>
      </trkpt>
      <trkpt lat="32.360126" lon="-64.705881">
        <ele>0.177407</ele>
        <time>2026-04-26T09:26:55.000Z</time>
      </trkpt>
      <trkpt lat="32.360136" lon="-64.705883">
        <ele>0.177228</ele>
        <time>2026-04-26T09:26:55.000Z</time>
      </trkpt>
      <trkpt lat="32.360705" lon="-64.70622">
        <ele>0.162596</ele>
        <time>2026-04-26T09:27:02.000Z</time>
      </trkpt>
      <trkpt lat="32.361858" lon="-64.706789">
        <ele>0.1403</ele>
        <time>2026-04-26T09:27:16.000Z</time>
      </trkpt>
      <trkpt lat="32.362102" lon="-64.706834">
        <ele>0.137387</ele>
        <time>2026-04-26T09:27:19.000Z</time>
      </trkpt>
      <trkpt lat="32.362324" lon="-64.70685">
        <ele>0.134413</ele>
        <time>2026-04-26T09:27:21.000Z</time>
      </trkpt>
      <trkpt lat="32.362868" lon="-64.706805">
        <ele>0.127758</ele>
        <time>2026-04-26T09:27:27.000Z</time>
      </trkpt>
      <trkpt lat="32.363359" lon="-64.706749">
        <ele>0.271168</ele>
        <time>2026-04-26T09:27:32.000Z</time>
      </trkpt>
      <trkpt lat="32.363492" lon="-64.706708">
        <ele>0.345875</ele>
        <time>2026-04-26T09:27:34.000Z</time>
      </trkpt>
      <trkpt lat="32.363681" lon="-64.70657">
        <ele>0.466291</ele>
        <time>2026-04-26T09:27:36.000Z</time>
      </trkpt>
      <trkpt lat="32.363776" lon="-64.706474">
        <ele>0.536699</ele>
        <time>2026-04-26T09:27:37.000Z</time>
      </trkpt>
      <trkpt lat="32.363967" lon="-64.706121">
        <ele>0.718664</ele>
        <time>2026-04-26T09:27:41.000Z</time>
      </trkpt>
      <trkpt lat="32.364276" lon="-64.705346">
        <ele>1.10346</ele>
        <time>2026-04-26T09:27:49.000Z</time>
      </trkpt>
      <trkpt lat="32.364949" lon="-64.703641">
        <ele>1.922663</ele>
        <time>2026-04-26T09:28:07.000Z</time>
      </trkpt>
      <trkpt lat="32.365241" lon="-64.702741">
        <ele>1.872722</ele>
        <time>2026-04-26T09:28:16.000Z</time>
      </trkpt>
      <trkpt lat="32.365366" lon="-64.702326">
        <ele>1.79822</ele>
        <time>2026-04-26T09:28:20.000Z</time>
      </trkpt>
      <trkpt lat="32.365664" lon="-64.701038">
        <ele>1.593787</ele>
        <time>2026-04-26T09:28:33.000Z</time>
      </trkpt>
      <trkpt lat="32.365884" lon="-64.700386">
        <ele>1.514455</ele>
        <time>2026-04-26T09:28:40.000Z</time>
      </trkpt>
      <trkpt lat="32.367536" lon="-64.696356">
        <ele>1.458156</ele>
        <time>2026-04-26T09:29:22.000Z</time>
      </trkpt>
      <trkpt lat="32.367921" lon="-64.695642">
        <ele>1.496595</ele>
        <time>2026-04-26T09:29:30.000Z</time>
      </trkpt>
      <trkpt lat="32.369034" lon="-64.694356">
        <ele>1.614943</ele>
        <time>2026-04-26T09:29:47.000Z</time>
      </trkpt>
      <trkpt lat="32.369234" lon="-64.693992">
        <ele>1.603835</ele>
        <time>2026-04-26T09:29:51.000Z</time>
      </trkpt>
      <trkpt lat="32.369466" lon="-64.693432">
        <ele>1.531561</ele>
        <time>2026-04-26T09:29:57.000Z</time>
      </trkpt>
      <trkpt lat="32.36976" lon="-64.692471">
        <ele>1.41056</ele>
        <time>2026-04-26T09:30:07.000Z</time>
      </trkpt>
      <trkpt lat="32.369855" lon="-64.692371">
        <ele>1.39278</ele>
        <time>2026-04-26T09:30:08.000Z</time>
      </trkpt>
      <trkpt lat="32.36991" lon="-64.692347">
        <ele>1.383717</ele>
        <time>2026-04-26T09:30:09.000Z</time>
      </trkpt>
      <trkpt lat="32.369976" lon="-64.692316">
        <ele>1.364816</ele>
        <time>2026-04-26T09:30:10.000Z</time>
      </trkpt>
      <trkpt lat="32.370042" lon="-64.692268">
        <ele>1.322781</ele>
        <time>2026-04-26T09:30:11.000Z</time>
      </trkpt>
      <trkpt lat="32.370051" lon="-64.692181">
        <ele>1.281064</ele>
        <time>2026-04-26T09:30:12.000Z</time>
      </trkpt>
      <trkpt lat="32.370039" lon="-64.692081">
        <ele>1.234243</ele>
        <time>2026-04-26T09:30:13.000Z</time>
      </trkpt>
      <trkpt lat="32.370006" lon="-64.691909">
        <ele>1.155672</ele>
        <time>2026-04-26T09:30:15.000Z</time>
      </trkpt>
      <trkpt lat="32.370028" lon="-64.691772">
        <ele>1.092311</ele>
        <time>2026-04-26T09:30:16.000Z</time>
      </trkpt>
      <trkpt lat="32.370033" lon="-64.691394">
        <ele>0.907054</ele>
        <time>2026-04-26T09:30:20.000Z</time>
      </trkpt>
      <trkpt lat="32.370025" lon="-64.690885">
        <ele>0.671292</ele>
        <time>2026-04-26T09:30:25.000Z</time>
      </trkpt>
      <trkpt lat="32.369973" lon="-64.690625">
        <ele>0.547301</ele>
        <time>2026-04-26T09:30:28.000Z</time>
      </trkpt>
      <trkpt lat="32.369736" lon="-64.69">
        <ele>0.309464</ele>
        <time>2026-04-26T09:30:34.000Z</time>
      </trkpt>
      <trkpt lat="32.369657" lon="-64.689668">
        <ele>0.239216</ele>
        <time>2026-04-26T09:30:37.000Z</time>
      </trkpt>
      <trkpt lat="32.369463" lon="-64.688384">
        <ele>-0.040584</ele>
        <time>2026-04-26T09:30:49.000Z</time>
      </trkpt>
      <trkpt lat="32.369472" lon="-64.687947">
        <ele>0.167882</ele>
        <time>2026-04-26T09:30:53.000Z</time>
      </trkpt>
      <trkpt lat="32.369578" lon="-64.687563">
        <ele>0.49985</ele>
        <time>2026-04-26T09:30:57.000Z</time>
      </trkpt>
      <trkpt lat="32.369757" lon="-64.687193">
        <ele>0.857016</ele>
        <time>2026-04-26T09:31:01.000Z</time>
      </trkpt>
      <trkpt lat="32.369918" lon="-64.686984">
        <ele>1.09051</ele>
        <time>2026-04-26T09:31:04.000Z</time>
      </trkpt>
      <trkpt lat="32.370717" lon="-64.686167">
        <ele>2.283806</ele>
        <time>2026-04-26T09:31:16.000Z</time>
      </trkpt>
      <trkpt lat="32.371044" lon="-64.685915">
        <ele>2.810832</ele>
        <time>2026-04-26T09:31:20.000Z</time>
      </trkpt>
      <trkpt lat="32.371141" lon="-64.685816">
        <ele>2.971825</ele>
        <time>2026-04-26T09:31:21.000Z</time>
      </trkpt>
      <trkpt lat="32.371207" lon="-64.685697">
        <ele>3.133491</ele>
        <time>2026-04-26T09:31:22.000Z</time>
      </trkpt>
      <trkpt lat="32.371234" lon="-64.685565">
        <ele>3.28256</ele>
        <time>2026-04-26T09:31:23.000Z</time>
      </trkpt>
      <trkpt lat="32.371249" lon="-64.685416">
        <ele>3.452741</ele>
        <time>2026-04-26T09:31:24.000Z</time>
      </trkpt>
      <trkpt lat="32.371218" lon="-64.685302">
        <ele>3.583432</ele>
        <time>2026-04-26T09:31:25.000Z</time>
      </trkpt>
      <trkpt lat="32.370858" lon="-64.684589">
        <ele>4.232371</ele>
        <time>2026-04-26T09:31:33.000Z</time>
      </trkpt>
      <trkpt lat="32.370675" lon="-64.684148">
        <ele>4.415669</ele>
        <time>2026-04-26T09:31:38.000Z</time>
      </trkpt>
      <trkpt lat="32.370462" lon="-64.683407">
        <ele>4.706963</ele>
        <time>2026-04-26T09:31:45.000Z</time>
      </trkpt>
      <trkpt lat="32.369517" lon="-64.680704">
        <ele>6.555842</ele>
        <time>2026-04-26T09:32:12.000Z</time>
      </trkpt>
      <trkpt lat="32.369419" lon="-64.680229">
        <ele>7.258868</ele>
        <time>2026-04-26T09:32:17.000Z</time>
      </trkpt>
      <trkpt lat="32.369401" lon="-64.679606">
        <ele>8.117141</ele>
        <time>2026-04-26T09:32:23.000Z</time>
      </trkpt>
      <trkpt lat="32.36945" lon="-64.679271">
        <ele>8.614253</ele>
        <time>2026-04-26T09:32:26.000Z</time>
      </trkpt>
      <trkpt lat="32.369702" lon="-64.678153">
        <ele>10.824151</ele>
        <time>2026-04-26T09:32:37.000Z</time>
      </trkpt>
      <trkpt lat="32.36971" lon="-64.678013">
        <ele>11.155121</ele>
        <time>2026-04-26T09:32:38.000Z</time>
      </trkpt>
      <trkpt lat="32.369687" lon="-64.677858">
        <ele>11.483999</ele>
        <time>2026-04-26T09:32:39.000Z</time>
      </trkpt>
      <trkpt lat="32.369413" lon="-64.677357">
        <ele>12.748606</ele>
        <time>2026-04-26T09:32:45.000Z</time>
      </trkpt>
      <trkpt lat="32.36941" lon="-64.677249">
        <ele>12.999658</ele>
        <time>2026-04-26T09:32:46.000Z</time>
      </trkpt>
      <trkpt lat="32.369512" lon="-64.676695">
        <ele>14.447389</ele>
        <time>2026-04-26T09:32:51.000Z</time>
      </trkpt>
      <trkpt lat="32.369648" lon="-64.67577">
        <ele>17.470117</ele>
        <time>2026-04-26T09:33:00.000Z</time>
      </trkpt>
      <trkpt lat="32.369637" lon="-64.675514">
        <ele>18.299603</ele>
        <time>2026-04-26T09:33:02.000Z</time>
      </trkpt>
      <trkpt lat="32.369421" lon="-64.674696">
        <ele>20.521505</ele>
        <time>2026-04-26T09:33:10.000Z</time>
      </trkpt>
      <trkpt lat="32.369408" lon="-64.674638">
        <ele>20.525675</ele>
        <time>2026-04-26T09:33:11.000Z</time>
      </trkpt>
      <trkpt lat="32.369365" lon="-64.674345">
        <ele>20.546135</ele>
        <time>2026-04-26T09:33:14.000Z</time>
      </trkpt>
      <trkpt lat="32.369306" lon="-64.674245">
        <ele>20.553065</ele>
        <time>2026-04-26T09:33:15.000Z</time>
      </trkpt>
      <trkpt lat="32.368882" lon="-64.67392">
        <ele>20.594336</ele>
        <time>2026-04-26T09:33:21.000Z</time>
      </trkpt>
      <trkpt lat="32.368703" lon="-64.673598">
        <ele>20.620852</ele>
        <time>2026-04-26T09:33:25.000Z</time>
      </trkpt>
      <trkpt lat="32.368445" lon="-64.673398">
        <ele>20.644734</ele>
        <time>2026-04-26T09:33:28.000Z</time>
      </trkpt>
      <trkpt lat="32.368266" lon="-64.673196">
        <ele>20.533317</ele>
        <time>2026-04-26T09:33:31.000Z</time>
      </trkpt>
      <trkpt lat="32.368001" lon="-64.672923">
        <ele>20.204034</ele>
        <time>2026-04-26T09:33:35.000Z</time>
      </trkpt>
      <trkpt lat="32.367909" lon="-64.672756">
        <ele>20.04773</ele>
        <time>2026-04-26T09:33:37.000Z</time>
      </trkpt>
      <trkpt lat="32.36776" lon="-64.672029">
        <ele>19.442522</ele>
        <time>2026-04-26T09:33:44.000Z</time>
      </trkpt>
      <trkpt lat="32.367756" lon="-64.671864">
        <ele>19.311666</ele>
        <time>2026-04-26T09:33:46.000Z</time>
      </trkpt>
      <trkpt lat="32.367758" lon="-64.671624">
        <ele>19.126133</ele>
        <time>2026-04-26T09:33:48.000Z</time>
      </trkpt>
      <trkpt lat="32.367842" lon="-64.671236">
        <ele>18.513948</ele>
        <time>2026-04-26T09:33:52.000Z</time>
      </trkpt>
      <trkpt lat="32.367843" lon="-64.670901">
        <ele>17.768578</ele>
        <time>2026-04-26T09:33:55.000Z</time>
      </trkpt>
      <trkpt lat="32.367821" lon="-64.670563">
        <ele>17.024</ele>
        <time>2026-04-26T09:33:58.000Z</time>
      </trkpt>
      <trkpt lat="32.367741" lon="-64.670175">
        <ele>16.121531</ele>
        <time>2026-04-26T09:34:02.000Z</time>
      </trkpt>
      <trkpt lat="32.367646" lon="-64.669958">
        <ele>15.567484</ele>
        <time>2026-04-26T09:34:04.000Z</time>
      </trkpt>
      <trkpt lat="32.367401" lon="-64.669537">
        <ele>14.41257</ele>
        <time>2026-04-26T09:34:09.000Z</time>
      </trkpt>
      <trkpt lat="32.367279" lon="-64.66934">
        <ele>13.841044</ele>
        <time>2026-04-26T09:34:11.000Z</time>
      </trkpt>
      <trkpt lat="32.367166" lon="-64.669178">
        <ele>13.406361</ele>
        <time>2026-04-26T09:34:13.000Z</time>
      </trkpt>
      <trkpt lat="32.367095" lon="-64.669119">
        <ele>13.160206</ele>
        <time>2026-04-26T09:34:14.000Z</time>
      </trkpt>
      <trkpt lat="32.366821" lon="-64.668917">
        <ele>12.325619</ele>
        <time>2026-04-26T09:34:18.000Z</time>
      </trkpt>
      <trkpt lat="32.366743" lon="-64.668794">
        <ele>12.014102</ele>
        <time>2026-04-26T09:34:19.000Z</time>
      </trkpt>
      <trkpt lat="32.366597" lon="-64.66815">
        <ele>10.501393</ele>
        <time>2026-04-26T09:34:25.000Z</time>
      </trkpt>
      <trkpt lat="32.366426" lon="-64.667658">
        <ele>9.384137</ele>
        <time>2026-04-26T09:34:30.000Z</time>
      </trkpt>
      <trkpt lat="32.366" lon="-64.667322">
        <ele>8.752257</ele>
        <time>2026-04-26T09:34:36.000Z</time>
      </trkpt>
      <trkpt lat="32.365757" lon="-64.667138">
        <ele>8.408373</ele>
        <time>2026-04-26T09:34:39.000Z</time>
      </trkpt>
      <trkpt lat="32.365705" lon="-64.667014">
        <ele>8.257315</ele>
        <time>2026-04-26T09:34:40.000Z</time>
      </trkpt>
      <trkpt lat="32.365665" lon="-64.666465">
        <ele>7.685632</ele>
        <time>2026-04-26T09:34:45.000Z</time>
      </trkpt>
      <trkpt lat="32.365648" lon="-64.666035">
        <ele>7.250141</ele>
        <time>2026-04-26T09:34:49.000Z</time>
      </trkpt>
      <trkpt lat="32.365678" lon="-64.665806">
        <ele>7.08798</ele>
        <time>2026-04-26T09:34:51.000Z</time>
      </trkpt>
      <trkpt lat="32.36568" lon="-64.665636">
        <ele>6.980333</ele>
        <time>2026-04-26T09:34:53.000Z</time>
      </trkpt>
      <trkpt lat="32.365618" lon="-64.665467">
        <ele>6.85967</ele>
        <time>2026-04-26T09:34:55.000Z</time>
      </trkpt>
      <trkpt lat="32.365165" lon="-64.664765">
        <ele>6.298733</ele>
        <time>2026-04-26T09:35:03.000Z</time>
      </trkpt>
      <trkpt lat="32.365091" lon="-64.664329">
        <ele>6.013186</ele>
        <time>2026-04-26T09:35:07.000Z</time>
      </trkpt>
      <trkpt lat="32.365045" lon="-64.663981">
        <ele>5.784836</ele>
        <time>2026-04-26T09:35:10.000Z</time>
      </trkpt>
      <trkpt lat="32.365062" lon="-64.663733">
        <ele>5.591982</ele>
        <time>2026-04-26T09:35:12.000Z</time>
      </trkpt>
      <trkpt lat="32.365226" lon="-64.663027">
        <ele>5.051364</ele>
        <time>2026-04-26T09:35:19.000Z</time>
      </trkpt>
      <trkpt lat="32.365213" lon="-64.662859">
        <ele>4.932589</ele>
        <time>2026-04-26T09:35:21.000Z</time>
      </trkpt>
      <trkpt lat="32.365136" lon="-64.662499">
        <ele>4.651905</ele>
        <time>2026-04-26T09:35:24.000Z</time>
      </trkpt>
      <trkpt lat="32.365148" lon="-64.661705">
        <ele>4.446423</ele>
        <time>2026-04-26T09:35:31.000Z</time>
      </trkpt>
      <trkpt lat="32.365124" lon="-64.661511">
        <ele>4.550249</ele>
        <time>2026-04-26T09:35:33.000Z</time>
      </trkpt>
      <trkpt lat="32.364799" lon="-64.660668">
        <ele>5.028181</ele>
        <time>2026-04-26T09:35:42.000Z</time>
      </trkpt>
      <trkpt lat="32.364759" lon="-64.660453">
        <ele>5.141804</ele>
        <time>2026-04-26T09:35:44.000Z</time>
      </trkpt>
      <trkpt lat="32.364736" lon="-64.660231">
        <ele>5.255946</ele>
        <time>2026-04-26T09:35:46.000Z</time>
      </trkpt>
      <trkpt lat="32.364755" lon="-64.660056">
        <ele>5.340329</ele>
        <time>2026-04-26T09:35:48.000Z</time>
      </trkpt>
      <trkpt lat="32.364786" lon="-64.659895">
        <ele>5.646919</ele>
        <time>2026-04-26T09:35:50.000Z</time>
      </trkpt>
      <trkpt lat="32.365114" lon="-64.65934">
        <ele>7.974213</ele>
        <time>2026-04-26T09:35:56.000Z</time>
      </trkpt>
      <trkpt lat="32.365307" lon="-64.659031">
        <ele>9.223222</ele>
        <time>2026-04-26T09:36:00.000Z</time>
      </trkpt>
      <trkpt lat="32.365458" lon="-64.658456">
        <ele>11.279894</ele>
        <time>2026-04-26T09:36:06.000Z</time>
      </trkpt>
      <trkpt lat="32.36551" lon="-64.658379">
        <ele>11.575836</ele>
        <time>2026-04-26T09:36:07.000Z</time>
      </trkpt>
      <trkpt lat="32.365318" lon="-64.658254">
        <ele>12.442809</ele>
        <time>2026-04-26T09:36:09.000Z</time>
      </trkpt>
      <trkpt lat="32.365028" lon="-64.658158">
        <ele>12.893579</ele>
        <time>2026-04-26T09:36:12.000Z</time>
      </trkpt>
      <trkpt lat="32.364673" lon="-64.658065">
        <ele>13.339464</ele>
        <time>2026-04-26T09:36:16.000Z</time>
      </trkpt>
      <trkpt lat="32.364522" lon="-64.658039">
        <ele>13.544897</ele>
        <time>2026-04-26T09:36:18.000Z</time>
      </trkpt>
      <trkpt lat="32.364425" lon="-64.658011">
        <ele>13.663889</ele>
        <time>2026-04-26T09:36:19.000Z</time>
      </trkpt>
      <trkpt lat="32.36427" lon="-64.657913">
        <ele>13.871551</ele>
        <time>2026-04-26T09:36:21.000Z</time>
      </trkpt>
      <trkpt lat="32.36399" lon="-64.658258">
        <ele>14.368615</ele>
        <time>2026-04-26T09:36:25.000Z</time>
      </trkpt>
      <trkpt lat="32.363849" lon="-64.658127">
        <ele>14.579673</ele>
        <time>2026-04-26T09:36:27.000Z</time>
      </trkpt>
      <trkpt lat="32.363717" lon="-64.658118">
        <ele>14.748443</ele>
        <time>2026-04-26T09:36:28.000Z</time>
      </trkpt>
      <trkpt lat="32.363414" lon="-64.658225">
        <ele>13.525893</ele>
        <time>2026-04-26T09:36:32.000Z</time>
      </trkpt>
      <trkpt lat="32.363164" lon="-64.658385">
        <ele>12.328278</ele>
        <time>2026-04-26T09:36:35.000Z</time>
      </trkpt>
      <trkpt lat="32.362952" lon="-64.658548">
        <ele>11.243365</ele>
        <time>2026-04-26T09:36:38.000Z</time>
      </trkpt>
      <trkpt lat="32.362781" lon="-64.658755">
        <ele>10.190421</ele>
        <time>2026-04-26T09:36:41.000Z</time>
      </trkpt>
      <trkpt lat="32.362583" lon="-64.659047">
        <ele>8.847229</ele>
        <time>2026-04-26T09:36:45.000Z</time>
      </trkpt>
      <trkpt lat="32.362339" lon="-64.659616">
        <ele>6.798208</ele>
        <time>2026-04-26T09:36:51.000Z</time>
      </trkpt>
      <trkpt lat="32.362218" lon="-64.65965">
        <ele>6.509822</ele>
        <time>2026-04-26T09:36:52.000Z</time>
      </trkpt>
      <trkpt lat="32.362176" lon="-64.659637">
        <ele>6.414425</ele>
        <time>2026-04-26T09:36:52.000Z</time>
      </trkpt>
      <trkpt lat="32.362131" lon="-64.659654">
        <ele>6.29426</ele>
        <time>2026-04-26T09:36:53.000Z</time>
      </trkpt>
      <trkpt lat="32.361917" lon="-64.659737">
        <ele>5.820088</ele>
        <time>2026-04-26T09:36:56.000Z</time>
      </trkpt>
      <trkpt lat="32.358372" lon="-64.660583">
        <ele>0.893789</ele>
        <time>2026-04-26T09:37:36.000Z</time>
      </trkpt>
      <trkpt lat="32.356899" lon="-64.660927">
        <ele>0.648236</ele>
        <time>2026-04-26T09:37:53.000Z</time>
      </trkpt>
      <trkpt lat="32.355722" lon="-64.661015">
        <ele>1.1781</ele>
        <time>2026-04-26T09:38:06.000Z</time>
      </trkpt>
      <trkpt lat="32.355451" lon="-64.661003">
        <ele>1.306123</ele>
        <time>2026-04-26T09:38:09.000Z</time>
      </trkpt>
      <trkpt lat="32.355215" lon="-64.660992">
        <ele>1.37777787974</ele>
        <time>2026-04-26T09:38:12.000Z</time>
      </trkpt>
      <trkpt lat="32.354927" lon="-64.660943">
        <ele>1.46605125348</ele>
        <time>2026-04-26T09:38:15.000Z</time>
      </trkpt>
      <trkpt lat="32.354905" lon="-64.66089">
        <ele>1.48118570731</ele>
        <time>2026-04-26T09:38:16.000Z</time>
      </trkpt>
      <trkpt lat="32.354809" lon="-64.660747">
        <ele>1.52799833055</ele>
        <time>2026-04-26T09:38:18.000Z</time>
      </trkpt>
      <trkpt lat="32.354332" lon="-64.659463">
        <ele>1.88748617732</ele>
        <time>2026-04-26T09:38:31.000Z</time>
      </trkpt>
    </trkseg>
  </trk>
</gpx>

<!--
Performance optimized by W3 Total Cache. Learn more: https://www.boldgrid.com/w3-total-cache/?utm_source=w3tc&utm_medium=footer_comment&utm_campaign=free_plugin

Page Caching using Disk: Enhanced{w3tc_pagecache_reject_reason} 

Served from: www.aquabike.world @ 2026-05-03 01:29:55 by W3 Total Cache
-->